Time,TemperatureF,DewpointF,PressureIn,WindDirection,WindDirectionDegrees,WindSpeedMPH,WindSpeedGustMPH,Humidity,HourlyPrecipIn,Conditions,Clouds,dailyrainin,SoftwareType,DateUTC
2013-06-13 00:01:00,50.4,46.3,29.82,WNW,292,0.0,0.0,86,0.00,,,0.00,WUHU21623XXSP,2013-06-13 04:01:00,
2013-06-13 00:03:00,50.4,46.3,29.82,WNW,292,0.0,0.0,86,0.00,,,0.00,WUHU21623XXSP,2013-06-13 04:03:00,
2013-06-13 00:05:00,50.2,46.1,29.82,WNW,292,0.0,0.0,86,0.00,,,0.00,WUHU21623XXSP,2013-06-13 04:05:00,
2013-06-13 00:07:00,49.8,45.7,29.82,WNW,292,0.0,0.0,86,0.00,,,0.00,WUHU21623XXSP,2013-06-13 04:07:00,
2013-06-13 00:09:00,49.8,45.7,29.82,WNW,292,0.0,0.0,86,0.00,,,0.00,WUHU21623XXSP,2013-06-13 04:09:00,
2013-06-13 00:11:00,49.6,45.6,29.82,WNW,292,0.0,0.0,86,0.00,,,0.00,WUHU21623XXSP,2013-06-13 04:11:00,
2013-06-13 00:13:00,49.6,45.6,29.82,WNW,292,0.0,0.0,86,0.00,,,0.00,WUHU21623XXSP,2013-06-13 04:13:00,
2013-06-13 00:16:00,49.3,45.2,29.82,WNW,292,0.0,0.0,86,0.00,,,0.00,WUHU21623XXSP,2013-06-13 04:16:00,
2013-06-13 00:18:00,49.5,45.4,29.82,WNW,292,0.0,0.0,86,0.00,,,0.00,WUHU21623XXSP,2013-06-13 04:18:00,
2013-06-13 00:20:00,49.6,45.9,29.82,WNW,292,0.0,0.0,87,0.00,,,0.00,WUHU21623XXSP,2013-06-13 04:20:00,
2013-06-13 00:22:00,49.6,45.9,29.82,WNW,292,0.0,0.0,87,0.00,,,0.00,WUHU21623XXSP,2013-06-13 04:22:00,
2013-06-13 00:24:00,49.6,45.9,29.81,WNW,292,0.0,0.0,87,0.00,,,0.00,WUHU21623XXSP,2013-06-13 04:24:00,
2013-06-13 00:26:00,49.6,45.9,29.81,WNW,292,0.0,0.0,87,0.00,,,0.00,WUHU21623XXSP,2013-06-13 04:26:00,
2013-06-13 00:28:00,49.6,45.9,29.81,WNW,292,0.0,0.0,87,0.00,,,0.00,WUHU21623XXSP,2013-06-13 04:28:00,
2013-06-13 00:31:00,49.6,45.9,29.81,WNW,292,0.0,0.0,87,0.00,,,0.00,WUHU21623XXSP,2013-06-13 04:31:00,
2013-06-13 00:33:00,49.6,45.9,29.81,WNW,292,0.0,0.0,87,0.00,,,0.00,WUHU21623XXSP,2013-06-13 04:33:00,
2013-06-13 00:35:00,49.6,45.9,29.81,WNW,292,0.0,0.0,87,0.00,,,0.00,WUHU21623XXSP,2013-06-13 04:35:00,
2013-06-13 00:37:00,49.3,45.5,29.81,WNW,292,0.0,0.0,87,0.00,,,0.00,WUHU21623XXSP,2013-06-13 04:37:00,
2013-06-13 00:39:00,49.3,45.5,29.81,WNW,292,0.0,0.0,87,0.00,,,0.00,WUHU21623XXSP,2013-06-13 04:39:00,
2013-06-13 00:41:00,49.1,45.4,29.81,WNW,292,0.0,0.0,87,0.00,,,0.00,WUHU21623XXSP,2013-06-13 04:41:00,
2013-06-13 00:43:00,49.3,45.5,29.81,WNW,292,0.0,0.0,87,0.00,,,0.00,WUHU21623XXSP,2013-06-13 04:43:00,
2013-06-13 00:47:00,49.3,45.5,29.81,WNW,292,0.0,0.0,87,0.00,,,0.00,WUHU21623XXSP,2013-06-13 04:47:00,
2013-06-13 00:48:00,49.3,45.5,29.80,WNW,292,0.0,0.0,87,0.00,,,0.00,WUHU21623XXSP,2013-06-13 04:48:00,
2013-06-13 00:50:00,49.3,45.5,29.80,WNW,292,0.0,0.0,87,0.00,,,0.00,WUHU21623XXSP,2013-06-13 04:50:00,
2013-06-13 00:52:00,49.5,45.7,29.80,WNW,292,0.0,0.0,87,0.00,,,0.00,WUHU21623XXSP,2013-06-13 04:52:00,
2013-06-13 00:54:00,49.6,45.9,29.80,WNW,292,0.0,0.0,87,0.00,,,0.00,WUHU21623XXSP,2013-06-13 04:54:00,
2013-06-13 00:56:00,49.3,45.5,29.80,WNW,292,0.0,0.0,87,0.00,,,0.00,WUHU21623XXSP,2013-06-13 04:56:00,
2013-06-13 00:58:00,49.1,45.4,29.80,WNW,292,0.0,0.0,87,0.00,,,0.00,WUHU21623XXSP,2013-06-13 04:58:00,
2013-06-13 01:01:00,49.1,45.4,29.80,WNW,292,0.0,0.0,87,0.00,,,0.00,WUHU21623XXSP,2013-06-13 05:01:00,
2013-06-13 01:03:00,48.9,45.2,29.79,WNW,292,0.0,0.0,87,0.00,,,0.00,WUHU21623XXSP,2013-06-13 05:03:00,
2013-06-13 01:05:00,48.7,45.0,29.79,WNW,292,0.0,0.0,87,0.00,,,0.00,WUHU21623XXSP,2013-06-13 05:05:00,
2013-06-13 01:07:00,48.7,45.0,29.79,WNW,292,0.0,0.0,87,0.00,,,0.00,WUHU21623XXSP,2013-06-13 05:07:00,
2013-06-13 01:09:00,48.7,45.0,29.79,WNW,292,0.0,0.0,87,0.00,,,0.00,WUHU21623XXSP,2013-06-13 05:09:00,
2013-06-13 01:11:00,48.6,44.9,29.79,WNW,292,0.0,0.0,87,0.00,,,0.00,WUHU21623XXSP,2013-06-13 05:11:00,
2013-06-13 01:13:00,48.6,44.9,29.79,WNW,292,0.0,0.0,87,0.00,,,0.00,WUHU21623XXSP,2013-06-13 05:13:00,
2013-06-13 01:16:00,48.9,45.2,29.79,WNW,292,0.0,0.0,87,0.00,,,0.00,WUHU21623XXSP,2013-06-13 05:16:00,
2013-06-13 01:18:00,49.1,45.4,29.79,WNW,292,0.0,0.0,87,0.00,,,0.00,WUHU21623XXSP,2013-06-13 05:18:00,
2013-06-13 01:20:00,49.3,45.5,29.79,WNW,292,0.0,0.0,87,0.00,,,0.00,WUHU21623XXSP,2013-06-13 05:20:00,
2013-06-13 01:22:00,49.1,45.4,29.79,WNW,292,0.0,0.0,87,0.00,,,0.00,WUHU21623XXSP,2013-06-13 05:22:00,
2013-06-13 01:24:00,49.1,45.4,29.79,WNW,292,0.0,0.0,87,0.00,,,0.00,WUHU21623XXSP,2013-06-13 05:24:00,
2013-06-13 01:26:00,49.5,45.7,29.79,WNW,292,0.0,0.0,87,0.00,,,0.00,WUHU21623XXSP,2013-06-13 05:26:00,
2013-06-13 01:28:00,49.6,45.9,29.79,WNW,292,0.0,0.0,87,0.00,,,0.00,WUHU21623XXSP,2013-06-13 05:28:00,
2013-06-13 01:31:00,49.6,45.9,29.79,WNW,292,0.0,0.0,87,0.00,,,0.00,WUHU21623XXSP,2013-06-13 05:31:00,
2013-06-13 01:33:00,49.6,45.9,29.79,WNW,292,0.0,0.0,87,0.00,,,0.00,WUHU21623XXSP,2013-06-13 05:33:00,
2013-06-13 01:35:00,49.6,45.9,29.79,WNW,292,0.0,0.0,87,0.00,,,0.00,WUHU21623XXSP,2013-06-13 05:35:00,
2013-06-13 01:37:00,49.6,45.9,29.79,WNW,292,0.0,0.0,87,0.00,,,0.00,WUHU21623XXSP,2013-06-13 05:37:00,
2013-06-13 01:39:00,49.8,46.0,29.79,WNW,292,0.0,0.0,87,0.00,,,0.00,WUHU21623XXSP,2013-06-13 05:39:00,
2013-06-13 01:41:00,50.0,46.2,29.79,WNW,292,0.0,0.0,87,0.00,,,0.00,WUHU21623XXSP,2013-06-13 05:41:00,
2013-06-13 01:43:00,50.5,46.7,29.79,WNW,292,0.0,0.0,87,0.00,,,0.00,WUHU21623XXSP,2013-06-13 05:43:00,
2013-06-13 01:47:00,50.9,47.1,29.79,WNW,292,0.0,0.0,87,0.00,,,0.00,WUHU21623XXSP,2013-06-13 05:47:00,
2013-06-13 01:48:00,51.4,47.6,29.79,West,270,0.0,0.0,87,0.00,,,0.00,WUHU21623XXSP,2013-06-13 05:48:00,
2013-06-13 01:50:00,51.6,47.8,29.79,WSW,247,0.0,0.0,87,0.00,,,0.00,WUHU21623XXSP,2013-06-13 05:50:00,
2013-06-13 01:52:00,51.8,48.0,29.79,WSW,247,0.0,0.0,87,0.00,,,0.00,WUHU21623XXSP,2013-06-13 05:52:00,
2013-06-13 01:54:00,52.0,48.2,29.79,WSW,247,0.0,0.0,87,0.00,,,0.00,WUHU21623XXSP,2013-06-13 05:54:00,
2013-06-13 01:56:00,52.0,48.2,29.79,WSW,247,0.0,0.0,87,0.00,,,0.00,WUHU21623XXSP,2013-06-13 05:56:00,
2013-06-13 01:58:00,52.0,48.2,29.80,WSW,247,0.0,0.0,87,0.00,,,0.00,WUHU21623XXSP,2013-06-13 05:58:00,
2013-06-13 02:00:00,52.0,48.2,29.79,WSW,247,0.0,0.0,87,0.00,,,0.00,WUHU21623XXSP,2013-06-13 06:00:00,
2013-06-13 02:03:00,51.8,48.0,29.79,WSW,247,0.0,0.0,87,0.00,,,0.00,WUHU21623XXSP,2013-06-13 06:03:00,
2013-06-13 02:05:00,51.8,48.0,29.79,WSW,247,0.0,0.0,87,0.00,,,0.00,WUHU21623XXSP,2013-06-13 06:05:00,
2013-06-13 02:07:00,51.8,48.0,29.79,WSW,247,0.0,0.0,87,0.00,,,0.00,WUHU21623XXSP,2013-06-13 06:07:00,
2013-06-13 02:09:00,51.6,47.8,29.79,WSW,247,0.0,0.0,87,0.00,,,0.00,WUHU21623XXSP,2013-06-13 06:09:00,
2013-06-13 02:11:00,51.6,47.8,29.79,WSW,247,0.0,0.0,87,0.00,,,0.00,WUHU21623XXSP,2013-06-13 06:11:00,
2013-06-13 02:13:00,51.6,47.8,29.79,WSW,247,0.0,0.0,87,0.00,,,0.00,WUHU21623XXSP,2013-06-13 06:13:00,
2013-06-13 02:15:00,52.0,48.2,29.79,WSW,247,0.0,0.0,87,0.00,,,0.00,WUHU21623XXSP,2013-06-13 06:15:00,
2013-06-13 02:18:00,52.2,48.4,29.79,ENE,67,0.0,0.0,87,0.00,,,0.00,WUHU21623XXSP,2013-06-13 06:18:00,
2013-06-13 02:20:00,52.3,48.5,29.79,ENE,67,0.0,0.0,87,0.00,,,0.00,WUHU21623XXSP,2013-06-13 06:20:00,
2013-06-13 02:22:00,52.7,48.9,29.78,SE,135,0.0,0.0,87,0.00,,,0.00,WUHU21623XXSP,2013-06-13 06:22:00,
2013-06-13 02:24:00,52.9,49.1,29.78,SE,135,0.0,0.0,87,0.00,,,0.00,WUHU21623XXSP,2013-06-13 06:24:00,
2013-06-13 02:26:00,53.2,49.4,29.78,SE,135,0.0,0.0,87,0.00,,,0.00,WUHU21623XXSP,2013-06-13 06:26:00,
2013-06-13 02:28:00,53.2,49.4,29.78,SE,135,0.0,0.0,87,0.00,,,0.00,WUHU21623XXSP,2013-06-13 06:28:00,
2013-06-13 02:30:00,53.4,49.6,29.78,SE,135,0.0,0.0,87,0.00,,,0.00,WUHU21623XXSP,2013-06-13 06:30:00,
2013-06-13 02:33:00,53.4,49.6,29.78,SE,135,0.0,0.0,87,0.00,,,0.00,WUHU21623XXSP,2013-06-13 06:33:00,
2013-06-13 02:35:00,53.4,49.6,29.78,SE,135,0.0,0.0,87,0.00,,,0.00,WUHU21623XXSP,2013-06-13 06:35:00,
2013-06-13 02:37:00,53.4,49.6,29.78,SE,135,0.0,0.0,87,0.00,,,0.00,WUHU21623XXSP,2013-06-13 06:37:00,
2013-06-13 02:39:00,53.8,50.0,29.77,SE,135,0.0,0.0,87,0.00,,,0.00,WUHU21623XXSP,2013-06-13 06:39:00,
2013-06-13 02:41:00,53.8,50.0,29.77,SE,135,0.0,0.0,87,0.00,,,0.00,WUHU21623XXSP,2013-06-13 06:41:00,
2013-06-13 02:43:00,53.8,50.0,29.78,SE,135,0.0,0.0,87,0.00,,,0.00,WUHU21623XXSP,2013-06-13 06:43:00,
2013-06-13 02:47:00,53.8,50.0,29.78,SE,135,0.0,0.0,87,0.00,,,0.00,WUHU21623XXSP,2013-06-13 06:47:00,
2013-06-13 02:48:00,53.8,50.0,29.78,SE,135,0.0,0.0,87,0.00,,,0.00,WUHU21623XXSP,2013-06-13 06:48:00,
2013-06-13 02:50:00,53.8,50.0,29.78,SE,135,0.0,0.0,87,0.00,,,0.00,WUHU21623XXSP,2013-06-13 06:50:00,
2013-06-13 02:52:00,53.4,49.6,29.77,SE,135,0.0,0.0,87,0.00,,,0.00,WUHU21623XXSP,2013-06-13 06:52:00,
2013-06-13 02:54:00,53.4,49.6,29.77,SE,135,0.0,0.0,87,0.00,,,0.00,WUHU21623XXSP,2013-06-13 06:54:00,
2013-06-13 02:56:00,53.4,49.6,29.77,SE,135,0.0,0.0,87,0.00,,,0.00,WUHU21623XXSP,2013-06-13 06:56:00,
2013-06-13 02:58:00,53.4,49.6,29.77,SE,135,0.0,0.0,87,0.00,,,0.00,WUHU21623XXSP,2013-06-13 06:58:00,
2013-06-13 03:00:00,53.4,49.6,29.77,SE,135,0.0,0.0,87,0.00,,,0.00,WUHU21623XXSP,2013-06-13 07:00:00,
2013-06-13 03:03:00,53.4,49.6,29.77,SE,135,0.0,0.0,87,0.00,,,0.00,WUHU21623XXSP,2013-06-13 07:03:00,
2013-06-13 03:05:00,53.4,49.6,29.77,SE,135,0.0,0.0,87,0.00,,,0.00,WUHU21623XXSP,2013-06-13 07:05:00,
2013-06-13 03:07:00,53.4,49.6,29.77,SE,135,0.0,0.0,87,0.00,,,0.00,WUHU21623XXSP,2013-06-13 07:07:00,
2013-06-13 03:09:00,53.4,49.6,29.77,SE,135,0.0,0.0,87,0.00,,,0.00,WUHU21623XXSP,2013-06-13 07:09:00,
2013-06-13 03:11:00,53.2,49.4,29.77,SE,135,0.0,0.0,87,0.00,,,0.00,WUHU21623XXSP,2013-06-13 07:11:00,
2013-06-13 03:13:00,53.2,49.4,29.77,SE,135,0.0,0.0,87,0.00,,,0.00,WUHU21623XXSP,2013-06-13 07:13:00,
2013-06-13 03:15:00,53.2,49.4,29.77,SE,135,0.0,0.0,87,0.00,,,0.00,WUHU21623XXSP,2013-06-13 07:15:00,
2013-06-13 03:17:00,53.2,49.4,29.77,SE,135,0.0,0.0,87,0.00,,,0.00,WUHU21623XXSP,2013-06-13 07:17:00,
2013-06-13 03:20:00,53.2,49.4,29.77,SE,135,0.0,0.0,87,0.00,,,0.00,WUHU21623XXSP,2013-06-13 07:20:00,
2013-06-13 03:22:00,53.2,49.4,29.77,SE,135,0.0,0.0,87,0.00,,,0.00,WUHU21623XXSP,2013-06-13 07:22:00,
2013-06-13 03:24:00,53.2,49.4,29.77,SE,135,0.0,0.0,87,0.00,,,0.00,WUHU21623XXSP,2013-06-13 07:24:00,
2013-06-13 03:26:00,53.2,49.4,29.77,SE,135,0.0,0.0,87,0.00,,,0.00,WUHU21623XXSP,2013-06-13 07:26:00,
2013-06-13 03:28:00,53.2,49.4,29.78,SE,135,0.0,0.0,87,0.00,,,0.00,WUHU21623XXSP,2013-06-13 07:28:00,
2013-06-13 03:30:00,53.2,49.4,29.78,SE,135,0.0,0.0,87,0.00,,,0.00,WUHU21623XXSP,2013-06-13 07:30:00,
2013-06-13 03:32:00,53.2,49.4,29.78,SE,135,0.0,0.0,87,0.00,,,0.00,WUHU21623XXSP,2013-06-13 07:32:00,
2013-06-13 03:35:00,53.2,49.4,29.77,SE,135,0.0,0.0,87,0.00,,,0.00,WUHU21623XXSP,2013-06-13 07:35:00,
2013-06-13 03:37:00,53.2,49.4,29.77,SE,135,0.0,0.0,87,0.00,,,0.00,WUHU21623XXSP,2013-06-13 07:37:00,
2013-06-13 03:39:00,53.2,49.4,29.77,SE,135,0.0,0.0,87,0.00,,,0.00,WUHU21623XXSP,2013-06-13 07:39:00,
2013-06-13 03:41:00,53.2,49.4,29.77,SE,135,0.0,0.0,87,0.00,,,0.00,WUHU21623XXSP,2013-06-13 07:41:00,
2013-06-13 03:43:00,53.2,49.4,29.77,East,90,0.0,0.0,87,0.00,,,0.00,WUHU21623XXSP,2013-06-13 07:43:00,
2013-06-13 03:45:00,53.2,49.4,29.77,East,90,0.0,0.0,87,0.00,,,0.00,WUHU21623XXSP,2013-06-13 07:45:00,
2013-06-13 03:47:00,53.2,49.4,29.77,East,90,0.0,0.0,87,0.00,,,0.00,WUHU21623XXSP,2013-06-13 07:47:00,
2013-06-13 03:50:00,53.2,49.4,29.76,East,90,0.0,0.0,87,0.00,,,0.00,WUHU21623XXSP,2013-06-13 07:50:00,
2013-06-13 03:52:00,53.2,49.4,29.76,East,90,0.0,0.0,87,0.00,,,0.00,WUHU21623XXSP,2013-06-13 07:52:00,
2013-06-13 03:54:00,53.1,49.3,29.75,East,90,0.0,0.0,87,0.00,,,0.00,WUHU21623XXSP,2013-06-13 07:54:00,
2013-06-13 03:56:00,53.2,49.4,29.75,East,90,0.0,0.0,87,0.00,,,0.00,WUHU21623XXSP,2013-06-13 07:56:00,
2013-06-13 03:58:00,53.2,49.4,29.75,East,90,0.0,0.0,87,0.00,,,0.00,WUHU21623XXSP,2013-06-13 07:58:00,
2013-06-13 04:00:00,53.2,49.4,29.75,East,90,0.0,0.0,87,0.00,,,0.00,WUHU21623XXSP,2013-06-13 08:00:00,
2013-06-13 04:03:00,53.2,49.4,29.75,East,90,0.0,0.0,87,0.00,,,0.00,WUHU21623XXSP,2013-06-13 08:03:00,
2013-06-13 04:05:00,53.2,49.4,29.75,East,90,0.0,0.0,87,0.00,,,0.00,WUHU21623XXSP,2013-06-13 08:05:00,
2013-06-13 04:07:00,53.2,49.4,29.75,East,90,0.0,0.0,87,0.00,,,0.00,WUHU21623XXSP,2013-06-13 08:07:00,
2013-06-13 04:09:00,53.2,49.4,29.75,East,90,0.0,0.0,87,0.00,,,0.00,WUHU21623XXSP,2013-06-13 08:09:00,
2013-06-13 04:11:00,53.4,49.6,29.75,East,90,0.0,0.0,87,0.00,,,0.00,WUHU21623XXSP,2013-06-13 08:11:00,
2013-06-13 04:13:00,53.8,50.0,29.74,East,90,0.0,0.0,87,0.00,,,0.00,WUHU21623XXSP,2013-06-13 08:13:00,
2013-06-13 04:15:00,54.5,50.7,29.74,South,180,2.0,2.0,87,0.00,,,0.00,WUHU21623XXSP,2013-06-13 08:15:00,
2013-06-13 04:17:00,55.2,51.7,29.74,SSE,157,0.7,2.0,88,0.00,,,0.00,WUHU21623XXSP,2013-06-13 08:17:00,
2013-06-13 04:20:00,55.8,51.9,29.74,SSE,157,0.0,2.0,87,0.00,,,0.00,WUHU21623XXSP,2013-06-13 08:20:00,
2013-06-13 04:22:00,55.9,52.1,29.74,SSE,157,0.0,2.0,87,0.00,,,0.00,WUHU21623XXSP,2013-06-13 08:22:00,
2013-06-13 04:24:00,56.3,52.4,29.74,SE,135,3.4,3.4,87,0.00,,,0.00,WUHU21623XXSP,2013-06-13 08:24:00,
2013-06-13 04:26:00,56.5,52.6,29.74,SE,135,0.0,3.4,87,0.00,,,0.00,WUHU21623XXSP,2013-06-13 08:26:00,
2013-06-13 04:28:00,56.8,53.0,29.73,SSE,157,3.6,3.6,87,0.00,,,0.00,WUHU21623XXSP,2013-06-13 08:28:00,
2013-06-13 04:30:00,57.0,52.8,29.73,SSE,157,0.0,3.6,86,0.00,,,0.00,WUHU21623XXSP,2013-06-13 08:30:00,
2013-06-13 04:32:00,57.0,52.8,29.73,SE,135,1.1,3.6,86,0.00,,,0.00,WUHU21623XXSP,2013-06-13 08:32:00,
2013-06-13 04:35:00,57.4,53.2,29.73,East,90,0.0,3.6,86,0.00,,,0.00,WUHU21623XXSP,2013-06-13 08:35:00,
2013-06-13 04:37:00,57.6,53.4,29.73,SSE,157,0.0,3.6,86,0.00,,,0.00,WUHU21623XXSP,2013-06-13 08:37:00,
2013-06-13 04:39:00,57.7,53.6,29.73,SE,135,0.0,1.1,86,0.00,,,0.00,WUHU21623XXSP,2013-06-13 08:39:00,
2013-06-13 04:41:00,57.7,53.2,29.73,ESE,112,0.0,1.1,85,0.00,,,0.00,WUHU21623XXSP,2013-06-13 08:41:00,
2013-06-13 04:43:00,57.9,53.4,29.73,SSE,157,0.0,0.0,85,0.00,,,0.00,WUHU21623XXSP,2013-06-13 08:43:00,
2013-06-13 04:45:00,57.9,53.4,29.73,SSE,157,0.0,0.0,85,0.00,,,0.00,WUHU21623XXSP,2013-06-13 08:45:00,
2013-06-13 04:47:00,57.9,53.4,29.73,SSE,157,0.7,0.7,85,0.00,,,0.00,WUHU21623XXSP,2013-06-13 08:47:00,
2013-06-13 04:50:00,57.9,53.4,29.73,SE,135,0.0,0.7,85,0.00,,,0.00,WUHU21623XXSP,2013-06-13 08:50:00,
2013-06-13 04:52:00,58.1,53.3,29.73,SE,135,0.0,0.7,84,0.00,,,0.00,WUHU21623XXSP,2013-06-13 08:52:00,
2013-06-13 04:54:00,57.9,53.1,29.73,South,180,0.0,0.7,84,0.00,,,0.00,WUHU21623XXSP,2013-06-13 08:54:00,
2013-06-13 04:56:00,58.1,53.3,29.73,NE,45,3.8,3.8,84,0.00,,,0.00,WUHU21623XXSP,2013-06-13 08:56:00,
2013-06-13 04:58:00,58.3,53.1,29.73,SSE,157,4.7,4.7,83,0.00,,,0.00,WUHU21623XXSP,2013-06-13 08:58:00,
2013-06-13 05:00:00,58.3,53.1,29.73,SSE,157,6.3,6.3,83,0.00,,,0.00,WUHU21623XXSP,2013-06-13 09:00:00,
2013-06-13 05:02:00,58.3,53.1,29.73,SSE,157,0.0,6.3,83,0.00,,,0.00,WUHU21623XXSP,2013-06-13 09:02:00,
2013-06-13 05:05:00,58.3,53.1,29.73,SE,135,2.0,6.3,83,0.00,,,0.00,WUHU21623XXSP,2013-06-13 09:05:00,
2013-06-13 05:07:00,58.5,53.3,29.73,SE,135,0.0,6.3,83,0.00,,,0.00,WUHU21623XXSP,2013-06-13 09:07:00,
2013-06-13 05:09:00,58.3,53.1,29.73,SSE,157,0.0,6.3,83,0.00,,,0.00,WUHU21623XXSP,2013-06-13 09:09:00,
2013-06-13 05:11:00,58.3,53.1,29.73,SSE,157,1.3,2.0,83,0.00,,,0.00,WUHU21623XXSP,2013-06-13 09:11:00,
2013-06-13 05:13:00,58.3,53.1,29.73,ESE,112,3.4,3.4,83,0.00,,,0.00,WUHU21623XXSP,2013-06-13 09:13:00,
2013-06-13 05:15:00,58.3,53.1,29.72,East,90,5.8,5.8,83,0.00,,,0.00,WUHU21623XXSP,2013-06-13 09:15:00,
2013-06-13 05:17:00,58.1,53.0,29.72,ESE,112,0.0,5.8,83,0.00,,,0.00,WUHU21623XXSP,2013-06-13 09:17:00,
2013-06-13 05:20:00,58.1,53.0,29.73,East,90,0.0,5.8,83,0.00,,,0.00,WUHU21623XXSP,2013-06-13 09:20:00,
2013-06-13 05:22:00,58.3,53.1,29.73,SE,135,1.6,5.8,83,0.00,,,0.00,WUHU21623XXSP,2013-06-13 09:22:00,
2013-06-13 05:24:00,58.3,53.1,29.73,SSE,157,0.0,5.8,83,0.00,,,0.00,WUHU21623XXSP,2013-06-13 09:24:00,
2013-06-13 05:26:00,58.5,53.3,29.73,SSE,157,1.3,1.6,83,0.00,,,0.00,WUHU21623XXSP,2013-06-13 09:26:00,
2013-06-13 05:28:00,58.3,52.8,29.73,SSE,157,0.7,1.6,82,0.00,,,0.00,WUHU21623XXSP,2013-06-13 09:28:00,
2013-06-13 05:30:00,58.3,52.8,29.73,SSE,157,0.0,1.6,82,0.00,,,0.00,WUHU21623XXSP,2013-06-13 09:30:00,
2013-06-13 05:32:00,58.3,52.8,29.72,SSE,157,2.7,2.7,82,0.00,,,0.00,WUHU21623XXSP,2013-06-13 09:32:00,
2013-06-13 05:34:00,58.3,52.8,29.72,South,180,6.5,6.5,82,0.00,,,0.00,WUHU21623XXSP,2013-06-13 09:34:00,
2013-06-13 05:37:00,58.1,52.6,29.72,ESE,112,1.1,6.5,82,0.00,,,0.00,WUHU21623XXSP,2013-06-13 09:37:00,
2013-06-13 05:39:00,58.1,52.6,29.73,SE,135,0.0,6.5,82,0.00,,,0.00,WUHU21623XXSP,2013-06-13 09:39:00,
2013-06-13 05:41:00,57.9,52.8,29.73,SSE,157,0.0,6.5,83,0.00,,,0.00,WUHU21623XXSP,2013-06-13 09:41:00,
2013-06-13 05:43:00,58.1,53.0,29.72,ESE,112,0.0,6.5,83,0.00,,,0.00,WUHU21623XXSP,2013-06-13 09:43:00,
2013-06-13 05:45:00,57.9,52.4,29.73,ESE,112,1.1,1.1,82,0.00,,,0.00,WUHU21623XXSP,2013-06-13 09:45:00,
2013-06-13 05:48:00,57.9,52.4,29.73,ENE,67,7.4,7.4,82,0.00,,,0.00,WUHU21623XXSP,2013-06-13 09:48:00,
2013-06-13 05:49:00,57.9,52.4,29.73,South,180,3.1,7.4,82,0.00,,,0.00,WUHU21623XXSP,2013-06-13 09:49:00,
2013-06-13 05:52:00,57.9,52.4,29.73,East,90,0.0,7.4,82,0.00,,,0.00,WUHU21623XXSP,2013-06-13 09:52:00,
2013-06-13 05:54:00,57.9,52.4,29.73,South,180,8.3,8.3,82,0.00,,,0.00,WUHU21623XXSP,2013-06-13 09:54:00,
2013-06-13 05:56:00,57.9,52.8,29.73,SSE,157,0.0,8.3,83,0.00,,,0.00,WUHU21623XXSP,2013-06-13 09:56:00,
2013-06-13 05:58:00,57.9,52.8,29.73,ENE,67,2.9,8.3,83,0.00,,,0.00,WUHU21623XXSP,2013-06-13 09:58:00,
2013-06-13 06:00:00,57.7,52.6,29.72,SE,135,9.2,9.2,83,0.00,,,0.00,WUHU21623XXSP,2013-06-13 10:00:00,
2013-06-13 06:02:00,57.9,52.8,29.72,ESE,112,4.3,9.2,83,0.00,,,0.00,WUHU21623XXSP,2013-06-13 10:02:00,
2013-06-13 06:04:00,57.9,52.8,29.72,East,90,4.7,9.2,83,0.00,,,0.00,WUHU21623XXSP,2013-06-13 10:04:00,
2013-06-13 06:07:00,57.9,52.8,29.72,SE,135,4.0,9.2,83,0.00,,,0.00,WUHU21623XXSP,2013-06-13 10:07:00,
2013-06-13 06:09:00,57.9,52.4,29.72,East,90,1.8,9.2,82,0.00,,,0.00,WUHU21623XXSP,2013-06-13 10:09:00,
2013-06-13 06:11:00,58.1,52.6,29.72,SE,135,3.8,4.7,82,0.00,,,0.00,WUHU21623XXSP,2013-06-13 10:11:00,
2013-06-13 06:13:00,58.1,52.6,29.72,ESE,112,0.0,4.7,82,0.00,,,0.00,WUHU21623XXSP,2013-06-13 10:13:00,
2013-06-13 06:15:00,58.1,52.6,29.72,SE,135,0.9,4.0,82,0.00,,,0.00,WUHU21623XXSP,2013-06-13 10:15:00,
2013-06-13 06:17:00,58.3,52.8,29.72,ESE,112,1.8,3.8,82,0.00,,,0.00,WUHU21623XXSP,2013-06-13 10:17:00,
2013-06-13 06:19:00,58.1,52.6,29.72,SSE,157,0.0,3.8,82,0.00,,,0.00,WUHU21623XXSP,2013-06-13 10:19:00,
2013-06-13 06:22:00,58.3,52.8,29.72,ESE,112,0.0,1.8,82,0.00,,,0.00,WUHU21623XXSP,2013-06-13 10:22:00,
2013-06-13 06:24:00,58.1,52.6,29.72,SSE,157,0.0,1.8,82,0.00,,,0.00,WUHU21623XXSP,2013-06-13 10:24:00,
2013-06-13 06:26:00,58.1,52.6,29.72,SSE,157,1.1,1.8,82,0.00,,,0.00,WUHU21623XXSP,2013-06-13 10:26:00,
2013-06-13 06:28:00,58.1,52.6,29.72,SSE,157,2.0,2.0,82,0.00,,,0.00,WUHU21623XXSP,2013-06-13 10:28:00,
2013-06-13 06:30:00,58.1,53.0,29.72,SE,135,0.0,2.0,83,0.00,,,0.00,WUHU21623XXSP,2013-06-13 10:30:00,
2013-06-13 06:32:00,57.9,52.8,29.72,ESE,112,0.0,2.0,83,0.00,,,0.00,WUHU21623XXSP,2013-06-13 10:32:00,
2013-06-13 06:34:00,57.9,52.8,29.72,SSE,157,3.1,3.1,83,0.00,,,0.00,WUHU21623XXSP,2013-06-13 10:34:00,
2013-06-13 06:37:00,57.9,52.8,29.72,East,90,0.0,3.1,83,0.00,,,0.00,WUHU21623XXSP,2013-06-13 10:37:00,
2013-06-13 06:39:00,57.9,52.8,29.72,SSE,157,5.6,5.6,83,0.00,,,0.00,WUHU21623XXSP,2013-06-13 10:39:00,
2013-06-13 06:41:00,57.9,52.8,29.72,SSE,157,3.1,5.6,83,0.00,,,0.00,WUHU21623XXSP,2013-06-13 10:41:00,
2013-06-13 06:43:00,57.9,52.8,29.72,ESE,112,1.3,5.6,83,0.00,,,0.00,WUHU21623XXSP,2013-06-13 10:43:00,
2013-06-13 06:45:00,57.9,52.8,29.71,SE,135,0.0,5.6,83,0.00,,,0.00,WUHU21623XXSP,2013-06-13 10:45:00,
2013-06-13 06:47:00,57.9,52.8,29.71,ESE,112,0.0,5.6,83,0.00,,,0.00,WUHU21623XXSP,2013-06-13 10:47:00,
2013-06-13 06:49:00,57.9,52.8,29.71,East,90,2.0,3.1,83,0.00,,,0.00,WUHU21623XXSP,2013-06-13 10:49:00,
2013-06-13 06:52:00,57.9,52.8,29.71,ESE,112,4.7,4.7,83,0.00,,,0.00,WUHU21623XXSP,2013-06-13 10:52:00,
2013-06-13 06:54:00,57.9,52.8,29.71,SE,135,0.0,4.7,83,0.00,,,0.00,WUHU21623XXSP,2013-06-13 10:54:00,
2013-06-13 06:56:00,57.9,52.8,29.71,SSE,157,0.0,4.7,83,0.00,,,0.00,WUHU21623XXSP,2013-06-13 10:56:00,
2013-06-13 06:58:00,57.7,52.6,29.71,ESE,112,3.1,4.7,83,0.00,,,0.00,WUHU21623XXSP,2013-06-13 10:58:00,
2013-06-13 07:00:00,57.6,52.4,29.71,SSE,157,0.7,4.7,83,0.00,,,0.00,WUHU21623XXSP,2013-06-13 11:00:00,
2013-06-13 07:02:00,57.4,52.6,29.71,SSE,157,2.5,3.1,84,0.00,,,0.00,WUHU21623XXSP,2013-06-13 11:02:00,
2013-06-13 07:04:00,57.4,52.6,29.71,ESE,112,0.0,3.1,84,0.00,,,0.00,WUHU21623XXSP,2013-06-13 11:04:00,
2013-06-13 07:07:00,57.0,52.2,29.70,SSE,157,0.0,3.1,84,0.00,,,0.00,WUHU21623XXSP,2013-06-13 11:07:00,
2013-06-13 07:09:00,57.0,52.2,29.70,SSE,157,0.0,2.5,84,0.00,,,0.00,WUHU21623XXSP,2013-06-13 11:09:00,
2013-06-13 07:11:00,57.0,52.2,29.70,ESE,112,7.4,7.4,84,0.00,,,0.00,WUHU21623XXSP,2013-06-13 11:11:00,
2013-06-13 07:13:00,57.0,52.2,29.70,SSE,157,0.0,7.4,84,0.00,,,0.00,WUHU21623XXSP,2013-06-13 11:13:00,
2013-06-13 07:15:00,57.0,52.5,29.70,SE,135,0.0,7.4,85,0.00,,,0.00,WUHU21623XXSP,2013-06-13 11:15:00,
2013-06-13 07:17:00,57.0,52.5,29.70,SE,135,2.2,7.4,85,0.00,,,0.00,WUHU21623XXSP,2013-06-13 11:17:00,
2013-06-13 07:19:00,57.0,52.5,29.70,ESE,112,0.0,7.4,85,0.00,,,0.00,WUHU21623XXSP,2013-06-13 11:19:00,
2013-06-13 07:21:00,57.0,52.5,29.70,SSE,157,2.7,2.7,85,0.00,,,0.00,WUHU21623XXSP,2013-06-13 11:21:00,
2013-06-13 07:24:00,57.0,52.5,29.70,ESE,112,0.4,2.7,85,0.00,,,0.00,WUHU21623XXSP,2013-06-13 11:24:00,
2013-06-13 07:26:00,57.0,52.5,29.70,SE,135,0.0,2.7,85,0.00,,,0.00,WUHU21623XXSP,2013-06-13 11:26:00,
2013-06-13 07:28:00,57.0,52.5,29.70,SSE,157,0.0,2.7,85,0.00,,,0.00,WUHU21623XXSP,2013-06-13 11:28:00,
2013-06-13 07:30:00,57.0,52.5,29.69,ESE,112,0.4,2.7,85,0.00,,,0.00,WUHU21623XXSP,2013-06-13 11:30:00,
2013-06-13 07:32:00,57.0,52.5,29.69,ESE,112,0.0,0.4,85,0.00,,,0.00,WUHU21623XXSP,2013-06-13 11:32:00,
2013-06-13 07:34:00,57.0,52.5,29.70,SE,135,1.3,1.3,85,0.00,,,0.00,WUHU21623XXSP,2013-06-13 11:34:00,
2013-06-13 07:37:00,57.0,52.5,29.70,ESE,112,0.0,1.3,85,0.00,,,0.00,WUHU21623XXSP,2013-06-13 11:37:00,
2013-06-13 07:39:00,57.0,52.5,29.70,SSE,157,2.0,2.0,85,0.00,,,0.00,WUHU21623XXSP,2013-06-13 11:39:00,
2013-06-13 07:41:00,57.0,52.5,29.70,South,180,7.2,7.2,85,0.00,,,0.00,WUHU21623XXSP,2013-06-13 11:41:00,
2013-06-13 07:43:00,57.0,52.5,29.70,SSE,157,0.0,7.2,85,0.00,,,0.00,WUHU21623XXSP,2013-06-13 11:43:00,
2013-06-13 07:45:00,57.0,52.5,29.69,SSE,157,0.0,7.2,85,0.00,,,0.00,WUHU21623XXSP,2013-06-13 11:45:00,
2013-06-13 07:47:00,57.0,52.5,29.70,South,180,2.5,7.2,85,0.00,,,0.00,WUHU21623XXSP,2013-06-13 11:47:00,
2013-06-13 07:49:00,57.0,52.5,29.69,South,180,6.0,7.2,85,0.00,,,0.00,WUHU21623XXSP,2013-06-13 11:49:00,
2013-06-13 07:52:00,57.0,52.5,29.70,South,180,0.0,6.0,85,0.00,,,0.00,WUHU21623XXSP,2013-06-13 11:52:00,
2013-06-13 07:54:00,57.0,52.5,29.70,SSE,157,0.0,6.0,85,0.00,,,0.00,WUHU21623XXSP,2013-06-13 11:54:00,
2013-06-13 07:56:00,57.0,52.8,29.70,SE,135,1.6,6.0,86,0.00,,,0.00,WUHU21623XXSP,2013-06-13 11:56:00,
2013-06-13 07:58:00,57.0,52.8,29.69,SSE,157,0.0,6.0,86,0.00,,,0.00,WUHU21623XXSP,2013-06-13 11:58:00,
2013-06-13 08:00:00,56.8,52.3,29.70,SSE,157,0.7,1.6,85,0.00,,,0.00,WUHU21623XXSP,2013-06-13 12:00:00,
2013-06-13 08:02:00,56.8,52.3,29.69,SSE,157,7.8,7.8,85,0.00,,,0.00,WUHU21623XXSP,2013-06-13 12:02:00,
2013-06-13 08:04:00,56.8,52.3,29.69,SE,135,0.0,7.8,85,0.00,,,0.00,WUHU21623XXSP,2013-06-13 12:04:00,
2013-06-13 08:06:00,56.8,52.3,29.70,SE,135,0.0,7.8,85,0.00,,,0.00,WUHU21623XXSP,2013-06-13 12:06:00,
2013-06-13 08:09:00,56.8,52.3,29.70,ESE,112,0.0,7.8,85,0.00,,,0.00,WUHU21623XXSP,2013-06-13 12:09:00,
2013-06-13 08:11:00,56.5,52.0,29.70,SSE,157,0.0,7.8,85,0.00,,,0.00,WUHU21623XXSP,2013-06-13 12:11:00,
2013-06-13 08:13:00,56.5,52.0,29.70,East,90,3.4,3.4,85,0.00,,,0.00,WUHU21623XXSP,2013-06-13 12:13:00,
2013-06-13 08:15:00,56.5,52.3,29.70,South,180,0.0,3.4,86,0.00,,,0.00,WUHU21623XXSP,2013-06-13 12:15:00,
2013-06-13 08:17:00,56.3,52.1,29.69,SSE,157,2.9,3.4,86,0.00,,,0.00,WUHU21623XXSP,2013-06-13 12:17:00,
2013-06-13 08:19:00,56.3,52.1,29.70,SE,135,0.2,3.4,86,0.00,,,0.00,WUHU21623XXSP,2013-06-13 12:19:00,
2013-06-13 08:21:00,56.5,52.3,29.70,SE,135,0.0,3.4,86,0.00,,,0.00,WUHU21623XXSP,2013-06-13 12:21:00,
2013-06-13 08:24:00,56.1,51.9,29.70,SSE,157,0.0,2.9,86,0.02,,,0.00,WUHU21623XXSP,2013-06-13 12:24:00,
2013-06-13 08:26:00,56.3,52.1,29.70,SSE,157,0.7,2.9,86,0.02,,,0.02,WUHU21623XXSP,2013-06-13 12:26:00,
2013-06-13 08:28:00,56.1,51.9,29.69,SE,135,0.7,0.7,86,0.02,,,0.02,WUHU21623XXSP,2013-06-13 12:28:00,
2013-06-13 08:30:00,56.1,51.9,29.70,East,90,0.0,0.7,86,0.02,,,0.02,WUHU21623XXSP,2013-06-13 12:30:00,
2013-06-13 08:32:00,56.1,51.9,29.69,SE,135,1.8,1.8,86,0.02,,,0.02,WUHU21623XXSP,2013-06-13 12:32:00,
2013-06-13 08:34:00,56.1,51.9,29.69,ENE,67,4.3,4.3,86,0.02,,,0.02,WUHU21623XXSP,2013-06-13 12:34:00,
2013-06-13 08:36:00,55.9,51.8,29.69,SE,135,0.0,4.3,86,0.02,,,0.02,WUHU21623XXSP,2013-06-13 12:36:00,
2013-06-13 08:39:00,55.9,51.8,29.69,SSE,157,3.4,4.3,86,0.02,,,0.02,WUHU21623XXSP,2013-06-13 12:39:00,
2013-06-13 08:41:00,55.9,51.8,29.69,SE,135,0.0,4.3,86,0.02,,,0.02,WUHU21623XXSP,2013-06-13 12:41:00,
2013-06-13 08:43:00,55.9,51.8,29.69,SE,135,2.2,4.3,86,0.02,,,0.02,WUHU21623XXSP,2013-06-13 12:43:00,
2013-06-13 08:45:00,55.9,52.1,29.68,SSE,157,0.0,3.4,87,0.02,,,0.02,WUHU21623XXSP,2013-06-13 12:45:00,
2013-06-13 08:47:00,55.9,52.1,29.69,East,90,2.0,3.4,87,0.02,,,0.02,WUHU21623XXSP,2013-06-13 12:47:00,
2013-06-13 08:49:00,55.9,52.1,29.69,ENE,67,4.3,4.3,87,0.04,,,0.02,WUHU21623XXSP,2013-06-13 12:49:00,
2013-06-13 08:51:00,55.9,52.1,29.69,ESE,112,0.0,4.3,87,0.04,,,0.04,WUHU21623XXSP,2013-06-13 12:51:00,
2013-06-13 08:54:00,55.9,52.1,29.68,ESE,112,0.0,4.3,87,0.04,,,0.04,WUHU21623XXSP,2013-06-13 12:54:00,
2013-06-13 08:56:00,55.9,52.1,29.68,ESE,112,0.9,4.3,87,0.04,,,0.04,WUHU21623XXSP,2013-06-13 12:56:00,
2013-06-13 08:58:00,55.9,52.1,29.69,ESE,112,1.3,4.3,87,0.04,,,0.04,WUHU21623XXSP,2013-06-13 12:58:00,
2013-06-13 09:00:00,55.9,52.1,29.69,ESE,112,0.0,1.3,87,0.04,,,0.04,WUHU21623XXSP,2013-06-13 13:00:00,
2013-06-13 09:02:00,55.9,52.1,29.69,SE,135,0.0,1.3,87,0.04,,,0.04,WUHU21623XXSP,2013-06-13 13:02:00,
2013-06-13 09:04:00,55.9,52.1,29.69,East,90,0.7,1.3,87,0.04,,,0.04,WUHU21623XXSP,2013-06-13 13:04:00,
2013-06-13 09:07:00,55.9,52.1,29.69,ESE,112,0.0,1.3,87,0.04,,,0.04,WUHU21623XXSP,2013-06-13 13:07:00,
2013-06-13 09:09:00,55.9,52.1,29.69,ESE,112,4.9,4.9,87,0.04,,,0.04,WUHU21623XXSP,2013-06-13 13:09:00,
2013-06-13 09:11:00,55.9,52.1,29.69,ESE,112,0.0,4.9,87,0.04,,,0.04,WUHU21623XXSP,2013-06-13 13:11:00,
2013-06-13 09:13:00,55.9,52.1,29.69,ESE,112,0.0,4.9,87,0.04,,,0.04,WUHU21623XXSP,2013-06-13 13:13:00,
2013-06-13 09:15:00,55.9,52.1,29.68,ESE,112,2.0,4.9,87,0.06,,,0.04,WUHU21623XXSP,2013-06-13 13:15:00,
2013-06-13 09:17:00,55.9,52.1,29.68,East,90,6.9,6.9,87,0.06,,,0.06,WUHU21623XXSP,2013-06-13 13:17:00,
2013-06-13 09:19:00,55.9,52.1,29.68,ESE,112,0.0,6.9,87,0.06,,,0.06,WUHU21623XXSP,2013-06-13 13:19:00,
2013-06-13 09:21:00,55.9,52.1,29.68,East,90,8.3,8.3,87,0.04,,,0.06,WUHU21623XXSP,2013-06-13 13:21:00,
2013-06-13 09:24:00,55.9,52.1,29.67,ESE,112,4.7,8.3,87,0.04,,,0.06,WUHU21623XXSP,2013-06-13 13:24:00,
2013-06-13 09:26:00,55.9,52.1,29.67,East,90,4.3,8.3,87,0.04,,,0.06,WUHU21623XXSP,2013-06-13 13:26:00,
2013-06-13 09:28:00,55.8,51.9,29.67,East,90,9.6,9.6,87,0.04,,,0.06,WUHU21623XXSP,2013-06-13 13:28:00,
2013-06-13 09:30:00,55.9,52.1,29.67,SE,135,0.0,9.6,87,0.04,,,0.06,WUHU21623XXSP,2013-06-13 13:30:00,
2013-06-13 09:32:00,55.9,52.1,29.67,SE,135,0.0,9.6,87,0.06,,,0.06,WUHU21623XXSP,2013-06-13 13:32:00,
2013-06-13 09:34:00,55.9,52.1,29.67,ENE,67,2.0,9.6,87,0.06,,,0.08,WUHU21623XXSP,2013-06-13 13:34:00,
2013-06-13 09:36:00,55.9,52.1,29.67,East,90,7.2,9.6,87,0.06,,,0.08,WUHU21623XXSP,2013-06-13 13:36:00,
2013-06-13 09:38:00,55.9,52.1,29.67,ESE,112,1.1,7.2,87,0.06,,,0.08,WUHU21623XXSP,2013-06-13 13:38:00,
2013-06-13 09:41:00,55.9,52.1,29.67,ESE,112,0.0,7.2,87,0.06,,,0.08,WUHU21623XXSP,2013-06-13 13:41:00,
2013-06-13 09:43:00,55.9,52.1,29.67,East,90,5.8,7.2,87,0.06,,,0.08,WUHU21623XXSP,2013-06-13 13:43:00,
2013-06-13 09:45:00,55.9,52.1,29.67,ESE,112,4.7,7.2,87,0.06,,,0.08,WUHU21623XXSP,2013-06-13 13:45:00,
2013-06-13 09:47:00,56.1,52.3,29.67,SE,135,1.3,5.8,87,0.04,,,0.08,WUHU21623XXSP,2013-06-13 13:47:00,
2013-06-13 09:49:00,56.1,52.3,29.67,SE,135,0.0,5.8,87,0.04,,,0.08,WUHU21623XXSP,2013-06-13 13:49:00,
2013-06-13 09:51:00,56.1,52.3,29.67,South,180,2.2,5.8,87,0.04,,,0.08,WUHU21623XXSP,2013-06-13 13:51:00,
2013-06-13 09:54:00,56.1,52.3,29.68,South,180,1.8,4.7,87,0.04,,,0.08,WUHU21623XXSP,2013-06-13 13:54:00,
2013-06-13 09:56:00,56.1,52.3,29.68,SSE,157,2.2,2.2,87,0.04,,,0.08,WUHU21623XXSP,2013-06-13 13:56:00,
2013-06-13 09:58:00,56.1,52.3,29.68,SE,135,0.0,2.2,87,0.06,,,0.08,WUHU21623XXSP,2013-06-13 13:58:00,
2013-06-13 10:00:00,56.1,52.3,29.68,East,90,0.0,2.2,87,0.06,,,0.10,WUHU21623XXSP,2013-06-13 14:00:00,
2013-06-13 10:02:00,56.1,52.3,29.68,SE,135,0.0,2.2,87,0.06,,,0.10,WUHU21623XXSP,2013-06-13 14:02:00,
2013-06-13 10:04:00,55.9,52.1,29.68,ESE,112,0.0,2.2,87,0.06,,,0.10,WUHU21623XXSP,2013-06-13 14:04:00,
2013-06-13 10:06:00,56.1,52.3,29.68,SE,135,5.1,5.1,87,0.08,,,0.10,WUHU21623XXSP,2013-06-13 14:06:00,
2013-06-13 10:08:00,56.1,52.3,29.68,South,180,7.4,7.4,87,0.08,,,0.12,WUHU21623XXSP,2013-06-13 14:08:00,
2013-06-13 10:11:00,55.9,52.1,29.68,SSE,157,0.0,7.4,87,0.08,,,0.12,WUHU21623XXSP,2013-06-13 14:11:00,
2013-06-13 10:13:00,56.1,52.3,29.68,SE,135,0.0,7.4,87,0.08,,,0.12,WUHU21623XXSP,2013-06-13 14:13:00,
2013-06-13 10:15:00,55.9,52.1,29.68,ESE,112,6.9,7.4,87,0.08,,,0.12,WUHU21623XXSP,2013-06-13 14:15:00,
2013-06-13 10:17:00,55.9,52.1,29.67,ENE,67,2.7,7.4,87,0.08,,,0.14,WUHU21623XXSP,2013-06-13 14:17:00,
2013-06-13 10:19:00,56.1,52.3,29.67,SE,135,0.0,6.9,87,0.08,,,0.14,WUHU21623XXSP,2013-06-13 14:19:00,
2013-06-13 10:21:00,56.1,52.3,29.68,SE,135,2.2,6.9,87,0.08,,,0.14,WUHU21623XXSP,2013-06-13 14:21:00,
2013-06-13 10:23:00,55.9,52.1,29.67,ESE,112,9.8,9.8,87,0.10,,,0.14,WUHU21623XXSP,2013-06-13 14:23:00,
2013-06-13 10:26:00,55.9,52.1,29.67,SE,135,3.4,9.8,87,0.10,,,0.16,WUHU21623XXSP,2013-06-13 14:26:00,
2013-06-13 10:28:00,55.9,52.1,29.67,SE,135,1.3,9.8,87,0.10,,,0.16,WUHU21623XXSP,2013-06-13 14:28:00,
2013-06-13 10:30:00,55.9,52.1,29.67,SE,135,7.2,9.8,87,0.08,,,0.16,WUHU21623XXSP,2013-06-13 14:30:00,
2013-06-13 10:32:00,56.1,52.3,29.67,South,180,0.0,9.8,87,0.10,,,0.16,WUHU21623XXSP,2013-06-13 14:32:00,
2013-06-13 10:34:00,55.9,52.1,29.67,SE,135,2.2,7.2,87,0.10,,,0.18,WUHU21623XXSP,2013-06-13 14:34:00,
2013-06-13 10:36:00,55.9,52.1,29.67,SSE,157,1.8,7.2,87,0.10,,,0.18,WUHU21623XXSP,2013-06-13 14:36:00,
2013-06-13 10:38:00,56.1,52.3,29.68,SE,135,6.9,7.2,87,0.10,,,0.18,WUHU21623XXSP,2013-06-13 14:38:00,
2013-06-13 10:41:00,56.1,52.3,29.68,ESE,112,0.0,6.9,87,0.10,,,0.18,WUHU21623XXSP,2013-06-13 14:41:00,
2013-06-13 10:43:00,56.3,52.4,29.68,ENE,67,0.0,6.9,87,0.10,,,0.18,WUHU21623XXSP,2013-06-13 14:43:00,
2013-06-13 10:45:00,56.1,52.3,29.67,South,180,4.7,6.9,87,0.10,,,0.18,WUHU21623XXSP,2013-06-13 14:45:00,
2013-06-13 10:47:00,56.1,52.3,29.67,SE,135,4.7,6.9,87,0.10,,,0.18,WUHU21623XXSP,2013-06-13 14:47:00,
2013-06-13 10:49:00,56.1,52.3,29.67,ESE,112,0.0,4.7,87,0.12,,,0.18,WUHU21623XXSP,2013-06-13 14:49:00,
2013-06-13 10:51:00,56.1,52.3,29.67,ENE,67,2.0,4.7,87,0.12,,,0.20,WUHU21623XXSP,2013-06-13 14:51:00,
2013-06-13 10:53:00,56.1,52.3,29.67,ESE,112,0.2,4.7,87,0.12,,,0.20,WUHU21623XXSP,2013-06-13 14:53:00,
2013-06-13 10:56:00,56.1,52.3,29.67,SE,135,6.7,6.7,87,0.12,,,0.20,WUHU21623XXSP,2013-06-13 14:56:00,
2013-06-13 10:58:00,56.1,52.3,29.67,SE,135,1.1,6.7,87,0.12,,,0.20,WUHU21623XXSP,2013-06-13 14:58:00,
2013-06-13 11:00:00,56.1,52.3,29.67,East,90,6.0,6.7,87,0.12,,,0.22,WUHU21623XXSP,2013-06-13 15:00:00,
2013-06-13 11:02:00,56.1,52.3,29.67,ESE,112,1.8,6.7,87,0.12,,,0.22,WUHU21623XXSP,2013-06-13 15:02:00,
2013-06-13 11:04:00,56.1,52.3,29.67,SE,135,0.0,6.7,87,0.12,,,0.22,WUHU21623XXSP,2013-06-13 15:04:00,
2013-06-13 11:06:00,56.3,52.4,29.67,East,90,0.0,6.0,87,0.10,,,0.22,WUHU21623XXSP,2013-06-13 15:06:00,
2013-06-13 11:08:00,56.5,52.6,29.67,ESE,112,0.4,6.0,87,0.10,,,0.22,WUHU21623XXSP,2013-06-13 15:08:00,
2013-06-13 11:11:00,56.3,52.4,29.67,SE,135,9.2,9.2,87,0.10,,,0.22,WUHU21623XXSP,2013-06-13 15:11:00,
2013-06-13 11:13:00,56.3,52.4,29.67,SE,135,2.0,9.2,87,0.10,,,0.22,WUHU21623XXSP,2013-06-13 15:13:00,
2013-06-13 11:15:00,56.5,52.6,29.67,ESE,112,0.0,9.2,87,0.10,,,0.22,WUHU21623XXSP,2013-06-13 15:15:00,
2013-06-13 11:17:00,56.5,52.6,29.67,SE,135,1.1,9.2,87,0.10,,,0.24,WUHU21623XXSP,2013-06-13 15:17:00,
2013-06-13 11:19:00,56.5,52.6,29.66,East,90,0.0,9.2,87,0.10,,,0.24,WUHU21623XXSP,2013-06-13 15:19:00,
2013-06-13 11:21:00,56.7,52.8,29.66,ESE,112,4.5,4.5,87,0.08,,,0.24,WUHU21623XXSP,2013-06-13 15:21:00,
2013-06-13 11:23:00,56.8,53.0,29.66,East,90,6.3,6.3,87,0.08,,,0.24,WUHU21623XXSP,2013-06-13 15:23:00,
2013-06-13 11:26:00,56.5,52.6,29.66,SE,135,8.7,8.7,87,0.08,,,0.24,WUHU21623XXSP,2013-06-13 15:26:00,
2013-06-13 11:28:00,56.8,53.0,29.66,ESE,112,5.1,8.7,87,0.08,,,0.24,WUHU21623XXSP,2013-06-13 15:28:00,
2013-06-13 11:30:00,56.8,53.0,29.66,East,90,2.0,8.7,87,0.06,,,0.24,WUHU21623XXSP,2013-06-13 15:30:00,
2013-06-13 11:32:00,56.8,53.0,29.66,ESE,112,0.0,8.7,87,0.08,,,0.24,WUHU21623XXSP,2013-06-13 15:32:00,
2013-06-13 11:34:00,56.8,53.0,29.65,ESE,112,5.6,8.7,87,0.08,,,0.26,WUHU21623XXSP,2013-06-13 15:34:00,
2013-06-13 11:36:00,56.8,53.0,29.65,ESE,112,0.0,5.6,87,0.08,,,0.26,WUHU21623XXSP,2013-06-13 15:36:00,
2013-06-13 11:38:00,56.8,53.0,29.65,ESE,112,2.0,5.6,87,0.08,,,0.26,WUHU21623XXSP,2013-06-13 15:38:00,
2013-06-13 11:40:00,56.8,53.0,29.65,ESE,112,0.7,5.6,87,0.10,,,0.26,WUHU21623XXSP,2013-06-13 15:40:00,
2013-06-13 11:43:00,56.8,53.0,29.65,ESE,112,4.5,5.6,87,0.10,,,0.28,WUHU21623XXSP,2013-06-13 15:43:00,
2013-06-13 11:45:00,57.0,53.2,29.65,ESE,112,3.6,4.5,87,0.10,,,0.28,WUHU21623XXSP,2013-06-13 15:45:00,
2013-06-13 11:47:00,57.0,53.2,29.65,ESE,112,0.0,4.5,87,0.08,,,0.28,WUHU21623XXSP,2013-06-13 15:47:00,
2013-06-13 11:49:00,57.0,53.2,29.65,ESE,112,0.0,4.5,87,0.08,,,0.28,WUHU21623XXSP,2013-06-13 15:49:00,
2013-06-13 11:51:00,57.0,53.2,29.65,ENE,67,6.7,6.7,87,0.08,,,0.28,WUHU21623XXSP,2013-06-13 15:51:00,
2013-06-13 11:53:00,57.0,53.2,29.65,ESE,112,3.8,6.7,87,0.08,,,0.28,WUHU21623XXSP,2013-06-13 15:53:00,
2013-06-13 11:55:00,57.0,53.2,29.65,ESE,112,0.0,6.7,87,0.08,,,0.28,WUHU21623XXSP,2013-06-13 15:55:00,
2013-06-13 11:58:00,57.2,53.3,29.65,SE,135,5.4,6.7,87,0.06,,,0.28,WUHU21623XXSP,2013-06-13 15:58:00,
2013-06-13 12:00:00,57.2,53.3,29.64,ESE,112,4.7,6.7,87,0.06,,,0.28,WUHU21623XXSP,2013-06-13 16:00:00,
2013-06-13 12:02:00,57.4,53.5,29.64,ESE,112,7.8,7.8,87,0.06,,,0.28,WUHU21623XXSP,2013-06-13 16:02:00,
2013-06-13 12:04:00,57.4,53.5,29.64,South,180,0.0,7.8,87,0.06,,,0.28,WUHU21623XXSP,2013-06-13 16:04:00,
2013-06-13 12:06:00,57.4,53.5,29.64,ESE,112,14.5,14.5,87,0.06,,,0.28,WUHU21623XXSP,2013-06-13 16:06:00,
2013-06-13 12:08:00,57.4,53.5,29.64,SE,135,1.6,14.5,87,0.06,,,0.28,WUHU21623XXSP,2013-06-13 16:08:00,
2013-06-13 12:10:00,57.4,53.5,29.64,ESE,112,8.3,14.5,87,0.06,,,0.28,WUHU21623XXSP,2013-06-13 16:10:00,
2013-06-13 12:13:00,57.4,53.5,29.64,SE,135,0.0,14.5,87,0.06,,,0.28,WUHU21623XXSP,2013-06-13 16:13:00,
2013-06-13 12:15:00,57.4,53.5,29.63,East,90,0.0,14.5,87,0.06,,,0.28,WUHU21623XXSP,2013-06-13 16:15:00,
2013-06-13 12:17:00,57.4,53.5,29.64,SE,135,6.9,8.3,87,0.06,,,0.30,WUHU21623XXSP,2013-06-13 16:17:00,
2013-06-13 12:19:00,57.4,53.2,29.64,East,90,9.8,9.8,86,0.06,,,0.30,WUHU21623XXSP,2013-06-13 16:19:00,
2013-06-13 12:21:00,57.2,53.0,29.64,ESE,112,0.0,9.8,86,0.06,,,0.30,WUHU21623XXSP,2013-06-13 16:21:00,
2013-06-13 12:23:00,57.4,53.2,29.64,East,90,0.0,9.8,86,0.06,,,0.30,WUHU21623XXSP,2013-06-13 16:23:00,
2013-06-13 12:25:00,57.2,53.0,29.64,East,90,3.6,9.8,86,0.06,,,0.30,WUHU21623XXSP,2013-06-13 16:25:00,
2013-06-13 12:28:00,57.0,52.8,29.63,ESE,112,8.5,9.8,86,0.06,,,0.30,WUHU21623XXSP,2013-06-13 16:28:00,
2013-06-13 12:30:00,57.4,53.2,29.63,East,90,2.2,8.5,86,0.04,,,0.30,WUHU21623XXSP,2013-06-13 16:30:00,
2013-06-13 12:32:00,57.2,53.0,29.63,SE,135,0.4,8.5,86,0.04,,,0.30,WUHU21623XXSP,2013-06-13 16:32:00,
2013-06-13 12:34:00,57.2,53.0,29.63,NE,45,1.6,8.5,86,0.04,,,0.30,WUHU21623XXSP,2013-06-13 16:34:00,
2013-06-13 12:36:00,57.2,53.0,29.63,ESE,112,6.3,8.5,86,0.04,,,0.30,WUHU21623XXSP,2013-06-13 16:36:00,
2013-06-13 12:38:00,57.0,52.8,29.63,SSE,157,0.0,6.3,86,0.02,,,0.30,WUHU21623XXSP,2013-06-13 16:38:00,
2013-06-13 12:40:00,57.0,52.8,29.63,SSE,157,6.9,6.9,86,0.04,,,0.30,WUHU21623XXSP,2013-06-13 16:40:00,
2013-06-13 12:43:00,57.0,52.8,29.63,SSE,157,4.7,6.9,86,0.04,,,0.32,WUHU21623XXSP,2013-06-13 16:43:00,
2013-06-13 12:45:00,57.4,53.2,29.63,SE,135,0.0,6.9,86,0.04,,,0.32,WUHU21623XXSP,2013-06-13 16:45:00,
2013-06-13 12:47:00,57.4,53.2,29.63,South,180,0.0,6.9,86,0.04,,,0.32,WUHU21623XXSP,2013-06-13 16:47:00,
2013-06-13 12:49:00,57.4,53.2,29.63,SSE,157,1.1,6.9,86,0.04,,,0.32,WUHU21623XXSP,2013-06-13 16:49:00,
2013-06-13 12:51:00,57.4,53.2,29.63,NE,45,9.6,9.6,86,0.04,,,0.32,WUHU21623XXSP,2013-06-13 16:51:00,
2013-06-13 12:53:00,57.4,53.2,29.63,ENE,67,5.8,9.6,86,0.04,,,0.32,WUHU21623XXSP,2013-06-13 16:53:00,
2013-06-13 12:55:00,57.4,53.2,29.63,East,90,1.6,9.6,86,0.04,,,0.32,WUHU21623XXSP,2013-06-13 16:55:00,
2013-06-13 12:58:00,57.4,53.2,29.63,SE,135,6.3,9.6,86,0.06,,,0.32,WUHU21623XXSP,2013-06-13 16:58:00,
2013-06-13 13:00:00,57.4,53.2,29.63,SE,135,8.7,9.6,86,0.06,,,0.34,WUHU21623XXSP,2013-06-13 17:00:00,
2013-06-13 13:02:00,57.4,53.2,29.63,ESE,112,5.1,8.7,86,0.06,,,0.34,WUHU21623XXSP,2013-06-13 17:02:00,
2013-06-13 13:04:00,57.4,53.2,29.63,ESE,112,3.8,8.7,86,0.06,,,0.34,WUHU21623XXSP,2013-06-13 17:04:00,
2013-06-13 13:06:00,57.4,53.2,29.63,East,90,9.4,9.4,86,0.06,,,0.34,WUHU21623XXSP,2013-06-13 17:06:00,
2013-06-13 13:08:00,57.4,53.2,29.63,East,90,13.0,13.0,86,0.06,,,0.34,WUHU21623XXSP,2013-06-13 17:08:00,
2013-06-13 13:10:00,57.4,53.2,29.63,SE,135,2.9,13.0,86,0.06,,,0.34,WUHU21623XXSP,2013-06-13 17:10:00,
2013-06-13 13:13:00,57.4,53.2,29.63,ESE,112,3.4,13.0,86,0.06,,,0.34,WUHU21623XXSP,2013-06-13 17:13:00,
2013-06-13 13:15:00,57.4,53.2,29.63,ESE,112,0.0,13.0,86,0.04,,,0.34,WUHU21623XXSP,2013-06-13 17:15:00,
2013-06-13 13:17:00,57.4,53.2,29.63,SE,135,2.5,13.0,86,0.04,,,0.34,WUHU21623XXSP,2013-06-13 17:17:00,
2013-06-13 13:19:00,57.4,53.2,29.63,ESE,112,3.4,3.4,86,0.04,,,0.34,WUHU21623XXSP,2013-06-13 17:19:00,
2013-06-13 13:21:00,57.4,53.2,29.63,SE,135,10.1,10.1,86,0.04,,,0.34,WUHU21623XXSP,2013-06-13 17:21:00,
2013-06-13 13:23:00,57.6,53.4,29.63,East,90,5.6,10.1,86,0.06,,,0.34,WUHU21623XXSP,2013-06-13 17:23:00,
2013-06-13 13:25:00,57.6,53.4,29.63,SE,135,6.0,10.1,86,0.06,,,0.36,WUHU21623XXSP,2013-06-13 17:25:00,
2013-06-13 13:28:00,57.6,53.4,29.63,East,90,1.6,10.1,86,0.06,,,0.36,WUHU21623XXSP,2013-06-13 17:28:00,
2013-06-13 13:30:00,57.6,53.4,29.63,ESE,112,1.1,10.1,86,0.06,,,0.36,WUHU21623XXSP,2013-06-13 17:30:00,
2013-06-13 13:32:00,57.6,53.4,29.62,SSE,157,2.0,6.0,86,0.06,,,0.36,WUHU21623XXSP,2013-06-13 17:32:00,
2013-06-13 13:34:00,57.6,53.4,29.63,ESE,112,2.2,6.0,86,0.06,,,0.36,WUHU21623XXSP,2013-06-13 17:34:00,
2013-06-13 13:36:00,57.6,53.4,29.63,SE,135,2.2,2.2,86,0.06,,,0.36,WUHU21623XXSP,2013-06-13 17:36:00,
2013-06-13 13:38:00,57.4,53.2,29.63,ESE,112,3.4,3.4,86,0.04,,,0.36,WUHU21623XXSP,2013-06-13 17:38:00,
2013-06-13 13:40:00,57.4,53.2,29.63,SE,135,7.2,7.2,86,0.04,,,0.36,WUHU21623XXSP,2013-06-13 17:40:00,
2013-06-13 13:42:00,57.4,53.2,29.63,ESE,112,5.4,7.2,86,0.04,,,0.36,WUHU21623XXSP,2013-06-13 17:42:00,
2013-06-13 13:45:00,57.4,53.2,29.63,ESE,112,4.7,7.2,86,0.04,,,0.36,WUHU21623XXSP,2013-06-13 17:45:00,
2013-06-13 13:47:00,57.4,53.2,29.63,ESE,112,6.5,7.2,86,0.04,,,0.36,WUHU21623XXSP,2013-06-13 17:47:00,
2013-06-13 13:49:00,57.4,53.2,29.63,SE,135,7.2,7.2,86,0.06,,,0.36,WUHU21623XXSP,2013-06-13 17:49:00,
2013-06-13 13:51:00,57.4,53.2,29.63,ESE,112,0.7,7.2,86,0.06,,,0.38,WUHU21623XXSP,2013-06-13 17:51:00,
2013-06-13 13:53:00,57.6,53.4,29.63,East,90,8.7,8.7,86,0.06,,,0.38,WUHU21623XXSP,2013-06-13 17:53:00,
2013-06-13 13:55:00,57.6,53.4,29.63,SSE,157,7.2,8.7,86,0.06,,,0.38,WUHU21623XXSP,2013-06-13 17:55:00,
2013-06-13 13:57:00,57.7,53.6,29.63,South,180,6.9,8.7,86,0.04,,,0.38,WUHU21623XXSP,2013-06-13 17:57:00,
2013-06-13 14:00:00,57.7,53.6,29.63,SSE,157,4.0,8.7,86,0.04,,,0.38,WUHU21623XXSP,2013-06-13 18:00:00,
2013-06-13 14:02:00,57.7,53.6,29.63,East,90,0.4,8.7,86,0.04,,,0.38,WUHU21623XXSP,2013-06-13 18:02:00,
2013-06-13 14:04:00,57.9,53.7,29.63,East,90,5.4,7.2,86,0.04,,,0.38,WUHU21623XXSP,2013-06-13 18:04:00,
2013-06-13 14:06:00,57.9,53.7,29.63,ENE,67,3.4,6.9,86,0.04,,,0.38,WUHU21623XXSP,2013-06-13 18:06:00,
2013-06-13 14:08:00,57.9,53.7,29.63,SE,135,5.8,5.8,86,0.04,,,0.38,WUHU21623XXSP,2013-06-13 18:08:00,
2013-06-13 14:10:00,57.9,53.7,29.63,ENE,67,10.5,10.5,86,0.04,,,0.38,WUHU21623XXSP,2013-06-13 18:10:00,
2013-06-13 14:13:00,57.9,53.7,29.63,ESE,112,4.0,10.5,86,0.04,,,0.38,WUHU21623XXSP,2013-06-13 18:13:00,
2013-06-13 14:15:00,57.9,53.7,29.63,ESE,112,5.4,10.5,86,0.04,,,0.38,WUHU21623XXSP,2013-06-13 18:15:00,
2013-06-13 14:17:00,57.9,53.7,29.63,ESE,112,5.8,10.5,86,0.04,,,0.38,WUHU21623XXSP,2013-06-13 18:17:00,
2013-06-13 14:19:00,57.9,53.7,29.63,SE,135,11.6,11.6,86,0.04,,,0.38,WUHU21623XXSP,2013-06-13 18:19:00,
2013-06-13 14:21:00,57.9,53.7,29.63,East,90,0.0,11.6,86,0.02,,,0.38,WUHU21623XXSP,2013-06-13 18:21:00,
2013-06-13 14:23:00,57.9,53.7,29.63,SE,135,0.7,11.6,86,0.02,,,0.38,WUHU21623XXSP,2013-06-13 18:23:00,
2013-06-13 14:25:00,57.9,53.7,29.63,SE,135,0.2,11.6,86,0.02,,,0.38,WUHU21623XXSP,2013-06-13 18:25:00,
2013-06-13 14:27:00,57.9,53.7,29.63,SE,135,8.1,11.6,86,0.02,,,0.38,WUHU21623XXSP,2013-06-13 18:27:00,
2013-06-13 14:30:00,57.9,53.7,29.63,ESE,112,3.6,8.1,86,0.02,,,0.38,WUHU21623XXSP,2013-06-13 18:30:00,
2013-06-13 14:32:00,57.9,53.7,29.63,East,90,0.0,8.1,86,0.02,,,0.38,WUHU21623XXSP,2013-06-13 18:32:00,
2013-06-13 14:34:00,57.9,53.7,29.63,SE,135,2.5,8.1,86,0.02,,,0.38,WUHU21623XXSP,2013-06-13 18:34:00,
2013-06-13 14:36:00,57.9,53.7,29.63,SE,135,0.0,8.1,86,0.02,,,0.38,WUHU21623XXSP,2013-06-13 18:36:00,
2013-06-13 14:38:00,57.9,53.7,29.63,ESE,112,4.7,4.7,86,0.02,,,0.38,WUHU21623XXSP,2013-06-13 18:38:00,
2013-06-13 14:40:00,57.9,53.7,29.63,ESE,112,6.7,6.7,86,0.02,,,0.38,WUHU21623XXSP,2013-06-13 18:40:00,
2013-06-13 14:43:00,58.1,53.9,29.63,East,90,8.9,8.9,86,0.02,,,0.38,WUHU21623XXSP,2013-06-13 18:43:00,
2013-06-13 14:45:00,58.1,53.9,29.63,ESE,112,1.1,8.9,86,0.02,,,0.38,WUHU21623XXSP,2013-06-13 18:45:00,
2013-06-13 14:47:00,58.1,53.9,29.63,SSE,157,10.1,10.1,86,0.00,,,0.38,WUHU21623XXSP,2013-06-13 18:47:00,
2013-06-13 14:49:00,58.3,53.8,29.63,East,90,2.7,10.1,85,0.00,,,0.38,WUHU21623XXSP,2013-06-13 18:49:00,
2013-06-13 14:51:00,58.3,53.8,29.63,SSE,157,11.0,11.0,85,0.00,,,0.38,WUHU21623XXSP,2013-06-13 18:51:00,
2013-06-13 14:53:00,58.3,53.8,29.63,ESE,112,5.6,11.0,85,0.00,,,0.38,WUHU21623XXSP,2013-06-13 18:53:00,
2013-06-13 14:55:00,58.3,53.8,29.63,SE,135,1.3,11.0,85,0.00,,,0.38,WUHU21623XXSP,2013-06-13 18:55:00,
2013-06-13 14:57:00,58.5,54.0,29.62,SE,135,9.2,11.0,85,0.00,,,0.38,WUHU21623XXSP,2013-06-13 18:57:00,
2013-06-13 15:00:00,58.3,53.8,29.63,East,90,9.4,11.0,85,0.00,,,0.38,WUHU21623XXSP,2013-06-13 19:00:00,
2013-06-13 15:02:00,58.6,54.1,29.62,ENE,67,9.2,9.4,85,0.00,,,0.38,WUHU21623XXSP,2013-06-13 19:02:00,
2013-06-13 15:04:00,58.6,54.1,29.63,ENE,67,17.9,17.9,85,0.00,,,0.38,WUHU21623XXSP,2013-06-13 19:04:00,
2013-06-13 15:06:00,58.6,54.1,29.63,SSE,157,5.6,17.9,85,0.00,,,0.38,WUHU21623XXSP,2013-06-13 19:06:00,
2013-06-13 15:08:00,58.6,54.1,29.63,SE,135,1.1,17.9,85,0.00,,,0.38,WUHU21623XXSP,2013-06-13 19:08:00,
2013-06-13 15:10:00,58.6,54.1,29.63,SSE,157,1.3,17.9,85,0.00,,,0.38,WUHU21623XXSP,2013-06-13 19:10:00,
2013-06-13 15:12:00,58.6,54.1,29.63,SE,135,10.1,17.9,85,0.00,,,0.38,WUHU21623XXSP,2013-06-13 19:12:00,
2013-06-13 15:15:00,58.5,54.0,29.63,ESE,112,5.1,10.1,85,0.00,,,0.38,WUHU21623XXSP,2013-06-13 19:15:00,
2013-06-13 15:17:00,58.5,54.0,29.64,South,180,0.0,10.1,85,0.00,,,0.38,WUHU21623XXSP,2013-06-13 19:17:00,
2013-06-13 15:19:00,58.5,54.0,29.64,SE,135,0.4,10.1,85,0.00,,,0.38,WUHU21623XXSP,2013-06-13 19:19:00,
2013-06-13 15:21:00,58.5,54.0,29.64,ESE,112,1.6,10.1,85,0.00,,,0.38,WUHU21623XXSP,2013-06-13 19:21:00,
2013-06-13 15:23:00,58.5,54.0,29.64,SE,135,9.4,9.4,85,0.00,,,0.38,WUHU21623XXSP,2013-06-13 19:23:00,
2013-06-13 15:25:00,58.3,53.8,29.64,SE,135,7.6,9.4,85,0.00,,,0.38,WUHU21623XXSP,2013-06-13 19:25:00,
2013-06-13 15:27:00,58.3,53.8,29.64,SE,135,7.8,9.4,85,0.00,,,0.38,WUHU21623XXSP,2013-06-13 19:27:00,
2013-06-13 15:30:00,58.3,53.8,29.64,East,90,14.3,14.3,85,0.00,,,0.38,WUHU21623XXSP,2013-06-13 19:30:00,
2013-06-13 15:32:00,58.3,53.8,29.64,SE,135,2.5,14.3,85,0.00,,,0.38,WUHU21623XXSP,2013-06-13 19:32:00,
2013-06-13 15:34:00,58.3,53.8,29.64,SE,135,0.0,14.3,85,0.00,,,0.38,WUHU21623XXSP,2013-06-13 19:34:00,
2013-06-13 15:36:00,58.3,53.8,29.64,SE,135,5.6,14.3,85,0.00,,,0.38,WUHU21623XXSP,2013-06-13 19:36:00,
2013-06-13 15:38:00,58.3,53.8,29.64,SE,135,3.1,14.3,85,0.00,,,0.38,WUHU21623XXSP,2013-06-13 19:38:00,
2013-06-13 15:40:00,58.3,53.8,29.64,ESE,112,4.5,5.6,85,0.00,,,0.38,WUHU21623XXSP,2013-06-13 19:40:00,
2013-06-13 15:42:00,58.3,53.8,29.64,East,90,5.4,5.6,85,0.00,,,0.38,WUHU21623XXSP,2013-06-13 19:42:00,
2013-06-13 15:45:00,58.3,53.8,29.64,ESE,112,2.0,5.6,85,0.00,,,0.38,WUHU21623XXSP,2013-06-13 19:45:00,
2013-06-13 15:47:00,58.1,53.6,29.64,ESE,112,0.0,5.4,85,0.00,,,0.38,WUHU21623XXSP,2013-06-13 19:47:00,
2013-06-13 15:49:00,58.3,53.8,29.64,ESE,112,1.3,5.4,85,0.00,,,0.38,WUHU21623XXSP,2013-06-13 19:49:00,
2013-06-13 15:51:00,58.1,53.6,29.65,ESE,112,2.9,5.4,85,0.00,,,0.38,WUHU21623XXSP,2013-06-13 19:51:00,
2013-06-13 15:53:00,58.1,53.6,29.65,ESE,112,0.0,2.9,85,0.00,,,0.38,WUHU21623XXSP,2013-06-13 19:53:00,
2013-06-13 15:55:00,58.1,53.6,29.64,ENE,67,7.6,7.6,85,0.00,,,0.38,WUHU21623XXSP,2013-06-13 19:55:00,
2013-06-13 15:57:00,58.3,53.8,29.64,ENE,67,0.9,7.6,85,0.00,,,0.38,WUHU21623XXSP,2013-06-13 19:57:00,
2013-06-13 16:00:00,58.1,53.6,29.65,SE,135,1.1,7.6,85,0.00,,,0.38,WUHU21623XXSP,2013-06-13 20:00:00,
2013-06-13 16:02:00,58.1,53.6,29.64,SE,135,4.9,7.6,85,0.00,,,0.38,WUHU21623XXSP,2013-06-13 20:02:00,
2013-06-13 16:04:00,58.1,53.6,29.65,SE,135,6.5,7.6,85,0.00,,,0.38,WUHU21623XXSP,2013-06-13 20:04:00,
2013-06-13 16:06:00,57.9,53.4,29.65,East,90,6.3,6.5,85,0.00,,,0.38,WUHU21623XXSP,2013-06-13 20:06:00,
2013-06-13 16:08:00,57.9,53.4,29.65,East,90,4.5,6.5,85,0.00,,,0.38,WUHU21623XXSP,2013-06-13 20:08:00,
2013-06-13 16:10:00,57.9,53.4,29.65,SE,135,8.9,8.9,85,0.00,,,0.38,WUHU21623XXSP,2013-06-13 20:10:00,
2013-06-13 16:12:00,57.9,53.4,29.65,SE,135,0.0,8.9,85,0.00,,,0.38,WUHU21623XXSP,2013-06-13 20:12:00,
2013-06-13 16:15:00,57.9,53.4,29.65,ESE,112,1.1,8.9,85,0.00,,,0.38,WUHU21623XXSP,2013-06-13 20:15:00,
2013-06-13 16:17:00,57.9,53.4,29.64,ESE,112,0.9,8.9,85,0.00,,,0.38,WUHU21623XXSP,2013-06-13 20:17:00,
2013-06-13 16:19:00,58.1,53.6,29.64,ESE,112,2.9,8.9,85,0.00,,,0.38,WUHU21623XXSP,2013-06-13 20:19:00,
2013-06-13 16:21:00,58.1,53.3,29.64,East,90,7.6,7.6,84,0.00,,,0.38,WUHU21623XXSP,2013-06-13 20:21:00,
2013-06-13 16:23:00,58.1,53.3,29.64,SE,135,7.6,7.6,84,0.00,,,0.38,WUHU21623XXSP,2013-06-13 20:23:00,
2013-06-13 16:25:00,58.1,53.3,29.65,SE,135,10.7,10.7,84,0.00,,,0.38,WUHU21623XXSP,2013-06-13 20:25:00,
2013-06-13 16:27:00,58.1,53.3,29.65,East,90,0.0,10.7,84,0.00,,,0.38,WUHU21623XXSP,2013-06-13 20:27:00,
2013-06-13 16:30:00,58.1,53.3,29.65,East,90,1.6,10.7,84,0.00,,,0.38,WUHU21623XXSP,2013-06-13 20:30:00,
2013-06-13 16:32:00,58.1,53.3,29.65,WSW,247,4.7,10.7,84,0.00,,,0.38,WUHU21623XXSP,2013-06-13 20:32:00,
2013-06-13 16:34:00,57.9,53.1,29.65,ESE,112,6.5,10.7,84,0.00,,,0.38,WUHU21623XXSP,2013-06-13 20:34:00,
2013-06-13 16:36:00,57.9,53.1,29.65,East,90,0.9,6.5,84,0.00,,,0.38,WUHU21623XXSP,2013-06-13 20:36:00,
2013-06-13 16:38:00,57.9,53.1,29.66,SE,135,1.3,6.5,84,0.00,,,0.38,WUHU21623XXSP,2013-06-13 20:38:00,
2013-06-13 16:40:00,57.9,53.1,29.66,ESE,112,0.0,6.5,84,0.00,,,0.38,WUHU21623XXSP,2013-06-13 20:40:00,
2013-06-13 16:42:00,57.7,52.9,29.65,East,90,1.8,6.5,84,0.00,,,0.38,WUHU21623XXSP,2013-06-13 20:42:00,
2013-06-13 16:44:00,57.7,52.9,29.65,ESE,112,0.0,1.8,84,0.00,,,0.38,WUHU21623XXSP,2013-06-13 20:44:00,
2013-06-13 16:47:00,57.7,52.9,29.65,East,90,8.9,8.9,84,0.00,,,0.38,WUHU21623XXSP,2013-06-13 20:47:00,
2013-06-13 16:49:00,57.7,52.9,29.66,ESE,112,1.3,8.9,84,0.00,,,0.38,WUHU21623XXSP,2013-06-13 20:49:00,
2013-06-13 16:51:00,57.7,52.9,29.66,SE,135,0.9,8.9,84,0.00,,,0.38,WUHU21623XXSP,2013-06-13 20:51:00,
2013-06-13 16:53:00,57.6,52.7,29.66,ESE,112,3.4,8.9,84,0.00,,,0.38,WUHU21623XXSP,2013-06-13 20:53:00,
2013-06-13 16:55:00,57.6,52.7,29.66,ESE,112,0.0,8.9,84,0.00,,,0.38,WUHU21623XXSP,2013-06-13 20:55:00,
2013-06-13 16:57:00,57.6,52.7,29.65,ESE,112,0.0,3.4,84,0.00,,,0.38,WUHU21623XXSP,2013-06-13 20:57:00,
2013-06-13 17:00:00,57.6,52.7,29.65,ESE,112,0.0,3.4,84,0.00,,,0.38,WUHU21623XXSP,2013-06-13 21:00:00,
2013-06-13 17:02:00,57.6,52.7,29.65,ESE,112,4.5,4.5,84,0.00,,,0.38,WUHU21623XXSP,2013-06-13 21:02:00,
2013-06-13 17:04:00,57.6,53.1,29.66,ESE,112,0.0,4.5,85,0.00,,,0.38,WUHU21623XXSP,2013-06-13 21:04:00,
2013-06-13 17:06:00,57.6,53.1,29.66,East,90,1.6,4.5,85,0.00,,,0.38,WUHU21623XXSP,2013-06-13 21:06:00,
2013-06-13 17:08:00,57.6,53.1,29.66,ESE,112,0.0,4.5,85,0.00,,,0.38,WUHU21623XXSP,2013-06-13 21:08:00,
2013-06-13 17:10:00,57.6,53.1,29.65,ESE,112,9.6,9.6,85,0.00,,,0.38,WUHU21623XXSP,2013-06-13 21:10:00,
2013-06-13 17:12:00,57.6,52.7,29.66,SE,135,3.4,9.6,84,0.00,,,0.38,WUHU21623XXSP,2013-06-13 21:12:00,
2013-06-13 17:15:00,57.6,52.7,29.66,East,90,5.6,9.6,84,0.00,,,0.38,WUHU21623XXSP,2013-06-13 21:15:00,
2013-06-13 17:17:00,57.6,52.7,29.66,East,90,0.0,9.6,84,0.00,,,0.38,WUHU21623XXSP,2013-06-13 21:17:00,
2013-06-13 17:19:00,57.6,53.1,29.66,SE,135,3.8,9.6,85,0.00,,,0.38,WUHU21623XXSP,2013-06-13 21:19:00,
2013-06-13 17:21:00,57.6,53.1,29.66,SE,135,0.0,5.6,85,0.00,,,0.38,WUHU21623XXSP,2013-06-13 21:21:00,
2013-06-13 17:23:00,57.6,53.1,29.66,ESE,112,0.0,5.6,85,0.00,,,0.38,WUHU21623XXSP,2013-06-13 21:23:00,
2013-06-13 17:25:00,57.7,53.2,29.66,SE,135,0.0,3.8,85,0.00,,,0.38,WUHU21623XXSP,2013-06-13 21:25:00,
2013-06-13 17:27:00,57.6,53.1,29.65,ESE,112,4.9,4.9,85,0.00,,,0.38,WUHU21623XXSP,2013-06-13 21:27:00,
2013-06-13 17:29:00,57.6,53.1,29.66,ENE,67,9.2,9.2,85,0.00,,,0.38,WUHU21623XXSP,2013-06-13 21:29:00,
2013-06-13 17:32:00,57.4,52.9,29.65,East,90,0.0,9.2,85,0.00,,,0.38,WUHU21623XXSP,2013-06-13 21:32:00,
2013-06-13 17:34:00,57.4,52.9,29.65,NE,45,0.0,9.2,85,0.00,,,0.38,WUHU21623XXSP,2013-06-13 21:34:00,
2013-06-13 17:36:00,57.2,52.7,29.66,ENE,67,1.1,9.2,85,0.00,,,0.38,WUHU21623XXSP,2013-06-13 21:36:00,
2013-06-13 17:38:00,57.2,52.7,29.66,NE,45,0.0,9.2,85,0.00,,,0.38,WUHU21623XXSP,2013-06-13 21:38:00,
2013-06-13 17:40:00,57.0,52.5,29.65,ENE,67,0.0,1.1,85,0.00,,,0.38,WUHU21623XXSP,2013-06-13 21:40:00,
2013-06-13 17:42:00,57.2,52.7,29.65,SE,135,4.3,4.3,85,0.00,,,0.38,WUHU21623XXSP,2013-06-13 21:42:00,
2013-06-13 17:44:00,57.0,52.5,29.66,ESE,112,0.0,4.3,85,0.00,,,0.38,WUHU21623XXSP,2013-06-13 21:44:00,
2013-06-13 17:47:00,57.0,52.5,29.66,ESE,112,0.0,4.3,85,0.00,,,0.38,WUHU21623XXSP,2013-06-13 21:47:00,
2013-06-13 17:49:00,57.0,52.5,29.66,East,90,6.9,6.9,85,0.00,,,0.38,WUHU21623XXSP,2013-06-13 21:49:00,
2013-06-13 17:51:00,57.0,52.5,29.66,ESE,112,0.0,6.9,85,0.00,,,0.38,WUHU21623XXSP,2013-06-13 21:51:00,
2013-06-13 17:53:00,57.0,52.5,29.66,North,0,0.7,6.9,85,0.00,,,0.38,WUHU21623XXSP,2013-06-13 21:53:00,
2013-06-13 17:55:00,57.0,52.5,29.66,ENE,67,0.0,6.9,85,0.00,,,0.38,WUHU21623XXSP,2013-06-13 21:55:00,
2013-06-13 17:57:00,57.0,52.8,29.66,East,90,1.3,6.9,86,0.00,,,0.38,WUHU21623XXSP,2013-06-13 21:57:00,
2013-06-13 18:00:00,57.0,52.8,29.66,ESE,112,3.8,3.8,86,0.00,,,0.38,WUHU21623XXSP,2013-06-13 22:00:00,
2013-06-13 18:02:00,57.0,52.5,29.66,ESE,112,0.7,3.8,85,0.00,,,0.38,WUHU21623XXSP,2013-06-13 22:02:00,
2013-06-13 18:04:00,57.0,52.8,29.66,ESE,112,0.0,3.8,86,0.00,,,0.38,WUHU21623XXSP,2013-06-13 22:04:00,
2013-06-13 18:06:00,56.8,52.3,29.66,ESE,112,0.0,3.8,85,0.02,,,0.38,WUHU21623XXSP,2013-06-13 22:06:00,
2013-06-13 18:08:00,56.8,52.3,29.66,SE,135,2.9,3.8,85,0.02,,,0.41,WUHU21623XXSP,2013-06-13 22:08:00,
2013-06-13 18:10:00,56.8,52.3,29.66,ESE,112,0.0,2.9,85,0.02,,,0.41,WUHU21623XXSP,2013-06-13 22:10:00,
2013-06-13 18:12:00,56.7,52.2,29.67,East,90,1.1,2.9,85,0.02,,,0.41,WUHU21623XXSP,2013-06-13 22:12:00,
2013-06-13 18:14:00,56.5,52.0,29.67,East,90,6.0,6.0,85,0.02,,,0.41,WUHU21623XXSP,2013-06-13 22:14:00,
2013-06-13 18:17:00,56.5,52.0,29.67,ESE,112,1.1,6.0,85,0.02,,,0.41,WUHU21623XXSP,2013-06-13 22:17:00,
2013-06-13 18:19:00,56.3,51.8,29.67,SE,135,1.6,6.0,85,0.02,,,0.41,WUHU21623XXSP,2013-06-13 22:19:00,
2013-06-13 18:21:00,56.5,52.0,29.67,SE,135,0.0,6.0,85,0.02,,,0.41,WUHU21623XXSP,2013-06-13 22:21:00,
2013-06-13 18:23:00,56.3,51.8,29.66,ENE,67,4.0,6.0,85,0.02,,,0.41,WUHU21623XXSP,2013-06-13 22:23:00,
2013-06-13 18:25:00,56.3,51.8,29.67,ENE,67,1.6,4.0,85,0.02,,,0.41,WUHU21623XXSP,2013-06-13 22:25:00,
2013-06-13 18:27:00,56.3,51.8,29.67,ESE,112,0.0,4.0,85,0.02,,,0.41,WUHU21623XXSP,2013-06-13 22:27:00,
2013-06-13 18:29:00,56.1,51.6,29.67,ENE,67,0.0,4.0,85,0.02,,,0.41,WUHU21623XXSP,2013-06-13 22:29:00,
2013-06-13 18:32:00,56.1,51.6,29.66,ESE,112,1.1,4.0,85,0.02,,,0.41,WUHU21623XXSP,2013-06-13 22:32:00,
2013-06-13 18:34:00,56.1,51.6,29.66,ESE,112,0.9,1.6,85,0.02,,,0.41,WUHU21623XXSP,2013-06-13 22:34:00,
2013-06-13 18:36:00,56.1,51.9,29.66,ESE,112,0.0,1.1,86,0.02,,,0.41,WUHU21623XXSP,2013-06-13 22:36:00,
2013-06-13 18:38:00,56.1,51.9,29.66,ESE,112,0.0,1.1,86,0.02,,,0.41,WUHU21623XXSP,2013-06-13 22:38:00,
2013-06-13 18:40:00,56.1,51.9,29.66,ESE,112,1.8,1.8,86,0.02,,,0.41,WUHU21623XXSP,2013-06-13 22:40:00,
2013-06-13 18:42:00,55.9,51.8,29.66,SE,135,0.0,1.8,86,0.02,,,0.41,WUHU21623XXSP,2013-06-13 22:42:00,
2013-06-13 18:44:00,55.9,51.8,29.67,East,90,3.4,3.4,86,0.02,,,0.41,WUHU21623XXSP,2013-06-13 22:44:00,
2013-06-13 18:47:00,55.9,51.8,29.67,ENE,67,0.0,3.4,86,0.02,,,0.41,WUHU21623XXSP,2013-06-13 22:47:00,
2013-06-13 18:49:00,55.9,51.8,29.67,ESE,112,1.6,3.4,86,0.02,,,0.41,WUHU21623XXSP,2013-06-13 22:49:00,
2013-06-13 18:51:00,55.9,51.8,29.66,ESE,112,0.0,3.4,86,0.02,,,0.41,WUHU21623XXSP,2013-06-13 22:51:00,
2013-06-13 18:53:00,55.9,51.8,29.67,SE,135,0.0,3.4,86,0.02,,,0.41,WUHU21623XXSP,2013-06-13 22:53:00,
2013-06-13 18:55:00,55.9,51.8,29.67,ESE,112,0.0,1.6,86,0.02,,,0.41,WUHU21623XXSP,2013-06-13 22:55:00,
2013-06-13 18:57:00,55.9,51.8,29.67,NNE,22,0.0,1.6,86,0.02,,,0.41,WUHU21623XXSP,2013-06-13 22:57:00,
2013-06-13 18:59:00,55.9,51.8,29.68,NNE,22,0.0,0.0,86,0.02,,,0.41,WUHU21623XXSP,2013-06-13 22:59:00,
2013-06-13 19:02:00,55.9,51.8,29.68,NNE,22,0.0,0.0,86,0.02,,,0.41,WUHU21623XXSP,2013-06-13 23:02:00,
2013-06-13 19:04:00,55.9,51.8,29.68,NNE,22,0.9,0.9,86,0.02,,,0.41,WUHU21623XXSP,2013-06-13 23:04:00,
2013-06-13 19:06:00,55.8,51.6,29.68,NNE,22,1.6,1.6,86,0.00,,,0.41,WUHU21623XXSP,2013-06-13 23:06:00,
2013-06-13 19:08:00,55.8,51.6,29.68,NNE,22,0.0,1.6,86,0.00,,,0.41,WUHU21623XXSP,2013-06-13 23:08:00,
2013-06-13 19:10:00,55.8,51.6,29.68,NNE,22,5.1,5.1,86,0.00,,,0.41,WUHU21623XXSP,2013-06-13 23:10:00,
2013-06-13 19:12:00,55.6,51.4,29.68,NNE,22,1.6,5.1,86,0.00,,,0.41,WUHU21623XXSP,2013-06-13 23:12:00,
2013-06-13 19:14:00,55.6,51.4,29.68,NNE,22,0.0,5.1,86,0.00,,,0.41,WUHU21623XXSP,2013-06-13 23:14:00,
2013-06-13 19:17:00,55.8,51.6,29.68,NE,45,3.8,5.1,86,0.00,,,0.41,WUHU21623XXSP,2013-06-13 23:17:00,
2013-06-13 19:19:00,55.6,51.4,29.68,NE,45,0.0,5.1,86,0.00,,,0.41,WUHU21623XXSP,2013-06-13 23:19:00,
2013-06-13 19:21:00,55.6,51.4,29.68,NE,45,0.0,3.8,86,0.00,,,0.41,WUHU21623XXSP,2013-06-13 23:21:00,
2013-06-13 19:23:00,55.6,51.4,29.67,NE,45,0.0,3.8,86,0.00,,,0.41,WUHU21623XXSP,2013-06-13 23:23:00,
2013-06-13 19:25:00,55.6,51.4,29.68,NE,45,0.0,3.8,86,0.00,,,0.41,WUHU21623XXSP,2013-06-13 23:25:00,
2013-06-13 19:27:00,55.6,51.4,29.68,NNE,22,1.6,1.6,86,0.00,,,0.41,WUHU21623XXSP,2013-06-13 23:27:00,
2013-06-13 19:29:00,55.6,51.4,29.68,NNE,22,0.0,1.6,86,0.00,,,0.41,WUHU21623XXSP,2013-06-13 23:29:00,
2013-06-13 19:32:00,55.6,51.4,29.68,NNE,22,0.0,1.6,86,0.00,,,0.41,WUHU21623XXSP,2013-06-13 23:32:00,
2013-06-13 19:34:00,55.6,51.4,29.68,NNE,22,0.0,1.6,86,0.00,,,0.41,WUHU21623XXSP,2013-06-13 23:34:00,
2013-06-13 19:36:00,55.6,51.4,29.68,NNE,22,0.0,1.6,86,0.00,,,0.41,WUHU21623XXSP,2013-06-13 23:36:00,
2013-06-13 19:38:00,55.6,51.4,29.68,NNE,22,1.8,1.8,86,0.00,,,0.41,WUHU21623XXSP,2013-06-13 23:38:00,
2013-06-13 19:40:00,55.4,51.5,29.69,NNE,22,0.0,1.8,87,0.00,,,0.41,WUHU21623XXSP,2013-06-13 23:40:00,
2013-06-13 19:42:00,55.4,51.5,29.68,NNE,22,3.4,3.4,87,0.00,,,0.41,WUHU21623XXSP,2013-06-13 23:42:00,
2013-06-13 19:44:00,55.4,51.5,29.69,NNE,22,0.0,3.4,87,0.00,,,0.41,WUHU21623XXSP,2013-06-13 23:44:00,
2013-06-13 19:47:00,55.4,51.5,29.68,NNE,22,0.0,3.4,87,0.00,,,0.41,WUHU21623XXSP,2013-06-13 23:47:00,
2013-06-13 19:49:00,55.4,51.5,29.68,NNE,22,0.0,3.4,87,0.00,,,0.41,WUHU21623XXSP,2013-06-13 23:49:00,
2013-06-13 19:51:00,55.2,51.4,29.69,NNE,22,0.0,3.4,87,0.00,,,0.41,WUHU21623XXSP,2013-06-13 23:51:00,
2013-06-13 19:53:00,55.2,51.4,29.69,NNE,22,0.0,0.0,87,0.00,,,0.41,WUHU21623XXSP,2013-06-13 23:53:00,
2013-06-13 19:55:00,55.2,51.4,29.68,NNE,22,0.0,0.0,87,0.00,,,0.41,WUHU21623XXSP,2013-06-13 23:55:00,
2013-06-13 19:57:00,55.2,51.4,29.68,NNE,22,0.0,0.0,87,0.00,,,0.41,WUHU21623XXSP,2013-06-13 23:57:00,
2013-06-13 19:59:00,55.2,51.4,29.68,NNE,22,0.0,0.0,87,0.00,,,0.41,WUHU21623XXSP,2013-06-13 23:59:00,
2013-06-13 20:01:00,55.2,51.4,29.69,NNE,22,0.0,0.0,87,0.00,,,0.41,WUHU21623XXSP,2013-06-14 00:01:00,
2013-06-13 20:04:00,55.2,51.4,29.69,NNE,22,0.0,0.0,87,0.00,,,0.41,WUHU21623XXSP,2013-06-14 00:04:00,
2013-06-13 20:06:00,55.2,51.4,29.69,NNE,22,0.0,0.0,87,0.00,,,0.41,WUHU21623XXSP,2013-06-14 00:06:00,
2013-06-13 20:08:00,55.2,51.4,29.69,NNE,22,0.0,0.0,87,0.00,,,0.41,WUHU21623XXSP,2013-06-14 00:08:00,
2013-06-13 20:10:00,55.2,51.4,29.69,NNE,22,0.0,0.0,87,0.00,,,0.41,WUHU21623XXSP,2013-06-14 00:10:00,
2013-06-13 20:12:00,55.2,51.4,29.69,NNE,22,0.0,0.0,87,0.00,,,0.41,WUHU21623XXSP,2013-06-14 00:12:00,
2013-06-13 20:14:00,55.2,51.4,29.69,NNE,22,0.0,0.0,87,0.00,,,0.41,WUHU21623XXSP,2013-06-14 00:14:00,
2013-06-13 20:16:00,55.2,51.4,29.69,NNE,22,0.0,0.0,87,0.00,,,0.41,WUHU21623XXSP,2013-06-14 00:16:00,
2013-06-13 20:19:00,55.2,51.4,29.70,NNE,22,0.0,0.0,87,0.00,,,0.41,WUHU21623XXSP,2013-06-14 00:19:00,
2013-06-13 20:21:00,55.2,51.4,29.69,NNE,22,0.0,0.0,87,0.00,,,0.41,WUHU21623XXSP,2013-06-14 00:21:00,
2013-06-13 20:23:00,55.2,51.4,29.69,NNE,22,0.0,0.0,87,0.00,,,0.41,WUHU21623XXSP,2013-06-14 00:23:00,
2013-06-13 20:25:00,55.2,51.4,29.69,NNE,22,0.0,0.0,87,0.00,,,0.41,WUHU21623XXSP,2013-06-14 00:25:00,
2013-06-13 20:27:00,55.2,51.4,29.69,NNE,22,0.0,0.0,87,0.00,,,0.41,WUHU21623XXSP,2013-06-14 00:27:00,
2013-06-13 20:29:00,55.2,51.4,29.70,NNE,22,0.0,0.0,87,0.00,,,0.41,WUHU21623XXSP,2013-06-14 00:29:00,
2013-06-13 20:31:00,55.2,51.4,29.69,NNE,22,0.0,0.0,87,0.00,,,0.41,WUHU21623XXSP,2013-06-14 00:31:00,
2013-06-13 20:34:00,55.2,51.4,29.69,NNE,22,0.0,0.0,87,0.00,,,0.41,WUHU21623XXSP,2013-06-14 00:34:00,
2013-06-13 20:36:00,55.2,51.4,29.69,NNE,22,0.0,0.0,87,0.00,,,0.41,WUHU21623XXSP,2013-06-14 00:36:00,
2013-06-13 20:38:00,55.2,51.4,29.69,NNE,22,0.0,0.0,87,0.00,,,0.41,WUHU21623XXSP,2013-06-14 00:38:00,
2013-06-13 20:40:00,55.2,51.4,29.69,NNE,22,0.0,0.0,87,0.00,,,0.41,WUHU21623XXSP,2013-06-14 00:40:00,
2013-06-13 20:42:00,55.2,51.4,29.69,NNE,22,0.0,0.0,87,0.00,,,0.41,WUHU21623XXSP,2013-06-14 00:42:00,
2013-06-13 20:44:00,55.2,51.4,29.69,NNE,22,0.0,0.0,87,0.00,,,0.41,WUHU21623XXSP,2013-06-14 00:44:00,
2013-06-13 20:46:00,55.2,51.4,29.69,NNE,22,0.0,0.0,87,0.00,,,0.41,WUHU21623XXSP,2013-06-14 00:46:00,
2013-06-13 20:49:00,55.0,51.2,29.69,NNE,22,0.0,0.0,87,0.00,,,0.41,WUHU21623XXSP,2013-06-14 00:49:00,
2013-06-13 20:51:00,55.2,51.4,29.69,NNE,22,0.2,0.2,87,0.00,,,0.41,WUHU21623XXSP,2013-06-14 00:51:00,
2013-06-13 20:53:00,55.0,51.2,29.69,NNE,22,0.0,0.2,87,0.00,,,0.41,WUHU21623XXSP,2013-06-14 00:53:00,
2013-06-13 20:55:00,55.0,51.2,29.69,NNE,22,0.0,0.2,87,0.00,,,0.41,WUHU21623XXSP,2013-06-14 00:55:00,
2013-06-13 20:57:00,55.0,51.2,29.69,NNE,22,0.0,0.2,87,0.00,,,0.41,WUHU21623XXSP,2013-06-14 00:57:00,
2013-06-13 20:59:00,54.9,51.0,29.69,NNE,22,0.0,0.2,87,0.00,,,0.41,WUHU21623XXSP,2013-06-14 00:59:00,
2013-06-13 21:01:00,54.9,51.0,29.69,NNE,22,0.0,0.0,87,0.00,,,0.41,WUHU21623XXSP,2013-06-14 01:01:00,
2013-06-13 21:04:00,54.9,51.0,29.70,NNE,22,0.0,0.0,87,0.00,,,0.41,WUHU21623XXSP,2013-06-14 01:04:00,
2013-06-13 21:06:00,54.7,50.8,29.69,NNE,22,0.0,0.0,87,0.00,,,0.41,WUHU21623XXSP,2013-06-14 01:06:00,
2013-06-13 21:08:00,54.7,50.8,29.69,NNE,22,0.0,0.0,87,0.00,,,0.41,WUHU21623XXSP,2013-06-14 01:08:00,
2013-06-13 21:10:00,54.7,50.8,29.69,NNE,22,0.0,0.0,87,0.00,,,0.41,WUHU21623XXSP,2013-06-14 01:10:00,
2013-06-13 21:12:00,54.7,50.8,29.69,NNE,22,0.0,0.0,87,0.00,,,0.41,WUHU21623XXSP,2013-06-14 01:12:00,
2013-06-13 21:14:00,54.5,50.7,29.69,NNE,22,0.0,0.0,87,0.00,,,0.41,WUHU21623XXSP,2013-06-14 01:14:00,
2013-06-13 21:16:00,54.5,50.7,29.69,NNE,22,0.0,0.0,87,0.00,,,0.41,WUHU21623XXSP,2013-06-14 01:16:00,
2013-06-13 21:19:00,54.5,50.7,29.69,NNE,22,0.0,0.0,87,0.00,,,0.41,WUHU21623XXSP,2013-06-14 01:19:00,
2013-06-13 21:21:00,54.5,50.7,29.69,NNE,22,0.0,0.0,87,0.00,,,0.41,WUHU21623XXSP,2013-06-14 01:21:00,
2013-06-13 21:23:00,54.5,50.7,29.70,NNE,22,0.0,0.0,87,0.00,,,0.41,WUHU21623XXSP,2013-06-14 01:23:00,
2013-06-13 21:25:00,54.5,50.7,29.70,NNE,22,0.0,0.0,87,0.00,,,0.41,WUHU21623XXSP,2013-06-14 01:25:00,
2013-06-13 21:27:00,54.5,50.7,29.70,NNE,22,0.0,0.0,87,0.00,,,0.41,WUHU21623XXSP,2013-06-14 01:27:00,
2013-06-13 21:29:00,54.7,50.8,29.70,NNE,22,0.0,0.0,87,0.00,,,0.41,WUHU21623XXSP,2013-06-14 01:29:00,
2013-06-13 21:31:00,54.7,50.8,29.70,NNE,22,0.0,0.0,87,0.00,,,0.41,WUHU21623XXSP,2013-06-14 01:31:00,
2013-06-13 21:33:00,54.7,50.8,29.70,NNE,22,0.0,0.0,87,0.00,,,0.41,WUHU21623XXSP,2013-06-14 01:33:00,
2013-06-13 21:36:00,54.5,50.7,29.70,NNE,22,0.0,0.0,87,0.00,,,0.41,WUHU21623XXSP,2013-06-14 01:36:00,
2013-06-13 21:38:00,54.7,50.8,29.71,NNE,22,0.0,0.0,87,0.00,,,0.41,WUHU21623XXSP,2013-06-14 01:38:00,
2013-06-13 21:40:00,54.7,50.8,29.71,NNE,22,0.7,0.7,87,0.00,,,0.41,WUHU21623XXSP,2013-06-14 01:40:00,
2013-06-13 21:42:00,54.7,50.8,29.71,NNE,22,0.0,0.7,87,0.00,,,0.41,WUHU21623XXSP,2013-06-14 01:42:00,
2013-06-13 21:44:00,54.7,50.8,29.71,NNE,22,0.0,0.7,87,0.00,,,0.41,WUHU21623XXSP,2013-06-14 01:44:00,
2013-06-13 21:46:00,54.7,50.8,29.71,NNE,22,0.0,0.7,87,0.00,,,0.41,WUHU21623XXSP,2013-06-14 01:46:00,
2013-06-13 21:48:00,54.7,50.8,29.71,NNE,22,1.8,1.8,87,0.00,,,0.41,WUHU21623XXSP,2013-06-14 01:48:00,
2013-06-13 21:51:00,54.7,50.8,29.71,NNE,22,0.0,1.8,87,0.00,,,0.41,WUHU21623XXSP,2013-06-14 01:51:00,
2013-06-13 21:53:00,54.7,50.8,29.71,NNE,22,0.0,1.8,87,0.00,,,0.41,WUHU21623XXSP,2013-06-14 01:53:00,
2013-06-13 21:55:00,54.7,50.8,29.71,NNE,22,0.0,1.8,87,0.00,,,0.41,WUHU21623XXSP,2013-06-14 01:55:00,
2013-06-13 21:57:00,54.5,50.7,29.71,NNE,22,1.1,1.8,87,0.00,,,0.41,WUHU21623XXSP,2013-06-14 01:57:00,
2013-06-13 21:59:00,54.7,50.8,29.71,NNE,22,0.4,1.1,87,0.00,,,0.41,WUHU21623XXSP,2013-06-14 01:59:00,
2013-06-13 22:01:00,54.5,50.7,29.71,NNE,22,0.0,1.1,87,0.00,,,0.41,WUHU21623XXSP,2013-06-14 02:01:00,
2013-06-13 22:04:00,54.5,50.7,29.71,NNE,22,0.0,1.1,87,0.00,,,0.41,WUHU21623XXSP,2013-06-14 02:04:00,
2013-06-13 22:06:00,54.5,50.7,29.72,NNE,22,0.0,1.1,87,0.00,,,0.41,WUHU21623XXSP,2013-06-14 02:06:00,
2013-06-13 22:08:00,54.5,50.7,29.72,NNE,22,0.4,0.4,87,0.00,,,0.41,WUHU21623XXSP,2013-06-14 02:08:00,
2013-06-13 22:10:00,54.5,50.7,29.72,NNE,22,0.4,0.4,87,0.00,,,0.41,WUHU21623XXSP,2013-06-14 02:10:00,
2013-06-13 22:12:00,54.5,50.7,29.72,NNE,22,0.7,0.7,87,0.00,,,0.41,WUHU21623XXSP,2013-06-14 02:12:00,
2013-06-13 22:14:00,54.5,50.7,29.72,NNE,22,2.2,2.2,87,0.00,,,0.41,WUHU21623XXSP,2013-06-14 02:14:00,
2013-06-13 22:16:00,54.5,50.7,29.72,NNE,22,4.9,4.9,87,0.00,,,0.41,WUHU21623XXSP,2013-06-14 02:16:00,
2013-06-13 22:18:00,54.5,50.7,29.72,NNE,22,0.0,4.9,87,0.00,,,0.41,WUHU21623XXSP,2013-06-14 02:18:00,
2013-06-13 22:21:00,54.5,50.7,29.72,NE,45,0.0,4.9,87,0.00,,,0.41,WUHU21623XXSP,2013-06-14 02:21:00,
2013-06-13 22:23:00,54.5,50.7,29.72,NE,45,0.0,4.9,87,0.00,,,0.41,WUHU21623XXSP,2013-06-14 02:23:00,
2013-06-13 22:25:00,54.3,50.5,29.72,NE,45,0.0,4.9,87,0.00,,,0.41,WUHU21623XXSP,2013-06-14 02:25:00,
2013-06-13 22:27:00,54.5,50.7,29.72,ESE,112,0.0,0.0,87,0.00,,,0.41,WUHU21623XXSP,2013-06-14 02:27:00,
2013-06-13 22:29:00,54.5,50.7,29.72,NE,45,0.7,0.7,87,0.00,,,0.41,WUHU21623XXSP,2013-06-14 02:29:00,
2013-06-13 22:31:00,54.5,50.7,29.72,NE,45,0.0,0.7,87,0.00,,,0.41,WUHU21623XXSP,2013-06-14 02:31:00,
2013-06-13 22:33:00,54.5,50.7,29.72,NE,45,2.0,2.0,87,0.00,,,0.41,WUHU21623XXSP,2013-06-14 02:33:00,
2013-06-13 22:36:00,54.3,50.5,29.73,NE,45,3.4,3.4,87,0.00,,,0.41,WUHU21623XXSP,2013-06-14 02:36:00,
2013-06-13 22:38:00,54.3,50.5,29.73,NNE,22,3.8,3.8,87,0.00,,,0.41,WUHU21623XXSP,2013-06-14 02:38:00,
2013-06-13 22:40:00,54.3,50.5,29.72,NNE,22,0.9,3.8,87,0.00,,,0.41,WUHU21623XXSP,2013-06-14 02:40:00,
2013-06-13 22:42:00,54.3,50.5,29.73,NNE,22,3.8,3.8,87,0.00,,,0.41,WUHU21623XXSP,2013-06-14 02:42:00,
2013-06-13 22:44:00,54.3,50.5,29.73,NNE,22,2.0,3.8,87,0.00,,,0.41,WUHU21623XXSP,2013-06-14 02:44:00,
2013-06-13 22:46:00,54.3,50.5,29.73,NNE,22,0.9,3.8,87,0.00,,,0.41,WUHU21623XXSP,2013-06-14 02:46:00,
2013-06-13 22:48:00,54.1,50.3,29.73,NNE,22,1.8,3.8,87,0.00,,,0.41,WUHU21623XXSP,2013-06-14 02:48:00,
2013-06-13 22:51:00,54.1,50.3,29.73,NNE,22,1.3,3.8,87,0.00,,,0.41,WUHU21623XXSP,2013-06-14 02:51:00,
2013-06-13 22:53:00,54.1,50.3,29.73,NNE,22,0.4,2.0,87,0.00,,,0.41,WUHU21623XXSP,2013-06-14 02:53:00,
2013-06-13 22:55:00,54.0,50.1,29.73,NNE,22,0.0,1.8,87,0.00,,,0.41,WUHU21623XXSP,2013-06-14 02:55:00,
2013-06-13 22:57:00,54.0,50.1,29.73,NNE,22,2.7,2.7,87,0.00,,,0.41,WUHU21623XXSP,2013-06-14 02:57:00,
2013-06-13 22:59:00,54.0,50.1,29.73,NNE,22,0.9,2.7,87,0.00,,,0.41,WUHU21623XXSP,2013-06-14 02:59:00,
2013-06-13 23:01:00,53.8,50.0,29.73,NNE,22,0.0,2.7,87,0.00,,,0.41,WUHU21623XXSP,2013-06-14 03:01:00,
2013-06-13 23:03:00,53.8,50.0,29.73,NNE,22,0.0,2.7,87,0.00,,,0.41,WUHU21623XXSP,2013-06-14 03:03:00,
2013-06-13 23:05:00,53.8,50.0,29.73,NNE,22,0.0,2.7,87,0.00,,,0.41,WUHU21623XXSP,2013-06-14 03:05:00,
2013-06-13 23:08:00,53.8,50.0,29.73,NNE,22,1.3,1.3,87,0.00,,,0.41,WUHU21623XXSP,2013-06-14 03:08:00,
2013-06-13 23:10:00,53.8,50.0,29.73,NNE,22,0.0,1.3,87,0.00,,,0.41,WUHU21623XXSP,2013-06-14 03:10:00,
2013-06-13 23:12:00,53.8,50.0,29.73,NNE,22,0.0,1.3,87,0.00,,,0.41,WUHU21623XXSP,2013-06-14 03:12:00,
2013-06-13 23:14:00,53.8,50.0,29.73,NNE,22,0.0,1.3,87,0.00,,,0.41,WUHU21623XXSP,2013-06-14 03:14:00,
2013-06-13 23:16:00,53.8,50.0,29.74,NNE,22,0.0,1.3,87,0.00,,,0.41,WUHU21623XXSP,2013-06-14 03:16:00,
2013-06-13 23:18:00,53.8,50.0,29.73,NNE,22,0.0,0.0,87,0.00,,,0.41,WUHU21623XXSP,2013-06-14 03:18:00,
2013-06-13 23:20:00,53.6,49.8,29.73,NNE,22,0.0,0.0,87,0.00,,,0.41,WUHU21623XXSP,2013-06-14 03:20:00,
2013-06-13 23:23:00,53.6,49.8,29.73,NNE,22,0.0,0.0,87,0.00,,,0.41,WUHU21623XXSP,2013-06-14 03:23:00,
2013-06-13 23:25:00,53.4,49.6,29.73,NNE,22,0.0,0.0,87,0.00,,,0.41,WUHU21623XXSP,2013-06-14 03:25:00,
2013-06-13 23:27:00,53.4,49.6,29.73,NNE,22,0.0,0.0,87,0.00,,,0.41,WUHU21623XXSP,2013-06-14 03:27:00,
2013-06-13 23:29:00,53.4,49.6,29.73,NNE,22,0.0,0.0,87,0.00,,,0.41,WUHU21623XXSP,2013-06-14 03:29:00,
2013-06-13 23:31:00,53.4,49.6,29.73,NNE,22,0.0,0.0,87,0.00,,,0.41,WUHU21623XXSP,2013-06-14 03:31:00,
2013-06-13 23:33:00,53.4,49.6,29.73,NNE,22,0.0,0.0,87,0.00,,,0.41,WUHU21623XXSP,2013-06-14 03:33:00,
2013-06-13 23:36:00,53.4,49.6,29.73,NNE,22,0.0,0.0,87,0.00,,,0.41,WUHU21623XXSP,2013-06-14 03:36:00,
2013-06-13 23:38:00,53.4,49.6,29.73,NNE,22,0.0,0.0,87,0.00,,,0.41,WUHU21623XXSP,2013-06-14 03:38:00,
2013-06-13 23:40:00,53.4,49.6,29.74,NNE,22,0.0,0.0,87,0.00,,,0.41,WUHU21623XXSP,2013-06-14 03:40:00,
2013-06-13 23:42:00,53.4,49.6,29.74,NNE,22,1.3,1.3,87,0.00,,,0.41,WUHU21623XXSP,2013-06-14 03:42:00,
2013-06-13 23:44:00,53.4,49.6,29.73,NNE,22,0.0,1.3,87,0.00,,,0.41,WUHU21623XXSP,2013-06-14 03:44:00,
2013-06-13 23:46:00,53.4,49.6,29.73,NNE,22,1.8,1.8,87,0.00,,,0.41,WUHU21623XXSP,2013-06-14 03:46:00,
2013-06-13 23:48:00,53.4,49.6,29.73,NNE,22,2.0,2.0,87,0.00,,,0.41,WUHU21623XXSP,2013-06-14 03:48:00,
2013-06-13 23:51:00,53.4,49.6,29.73,NNE,22,0.0,2.0,87,0.00,,,0.41,WUHU21623XXSP,2013-06-14 03:51:00,
2013-06-13 23:53:00,53.4,49.6,29.73,NNE,22,0.0,2.0,87,0.00,,,0.41,WUHU21623XXSP,2013-06-14 03:53:00,
2013-06-13 23:55:00,53.4,49.6,29.73,NNE,22,0.0,2.0,87,0.00,,,0.41,WUHU21623XXSP,2013-06-14 03:55:00,
2013-06-13 23:57:00,53.4,49.6,29.73,NNE,22,0.0,2.0,87,0.00,,,0.41,WUHU21623XXSP,2013-06-14 03:57:00,
2013-06-13 23:59:00,53.4,49.6,29.73,NNE,22,0.7,0.7,87,0.00,,,0.41,WUHU21623XXSP,2013-06-14 03:59:00,